DAL241 LGAV-KBOS
Flight info
| Callsign | DAL241 |
|---|---|
| Flight time | 9h 52m |
| Altitude | 24000 |
| Route | KOR L53 PIKAD/N0475F360 UL53 GARTA UV60 YNN UL613 VJOSA DCT PAPIZ DCT ANC/N0464F380 DCT TAGIP DCT RESIA DCT ARGAX DCT LOKTA/N0459F370 DCT TEDGO/N0461F380 L608 ULNOK DCT ADENU L608 DENUT L610 KOPUL DCT SAM N19 ADKIK DCT JOZMA DCT GAPLI/M081F380 DCT SOMAX/M081F390 DCT 51N020W 51N030W 51N040W 50N050W DCT ELSIR/N0479F400 N402C ALLEX DCT AJJAY OOSHN5 |
| Aircraft | A333/H-SDE3GHIJ2J3J5M1RVWXY/LB2D1 |
Departure
| Time | 2026-05-04 13:15 |
|---|---|
| Airport | Athens Eleftherios Venizelos International Airport (LGAV) |
Arrival
| Time | 2026-05-04 23:07 |
|---|---|
| Airport | Boston Logan International Airport (KBOS) |
| Time | Latitude | Longitude | Altitude | Speed | Heading |
|---|---|---|---|---|---|
| 2026-05-04 12:42 | 37.93325 | 23.94584 | 306 ft | 0 kts | 306° |
| 2026-05-04 13:03 | 37.93317 | 23.94598 | 307 ft | 4 kts | 302° |
| 2026-05-04 13:03 | 37.93304 | 23.94628 | 306 ft | 4 kts | 288° |
| 2026-05-04 13:04 | 37.93300 | 23.94660 | 303 ft | 4 kts | 257° |
| 2026-05-04 13:04 | 37.93308 | 23.94680 | 303 ft | 0 kts | 217° |
| 2026-05-04 13:04 | 37.93307 | 23.94680 | 303 ft | 0 kts | 217° |
| 2026-05-04 13:07 | 37.93302 | 23.94675 | 303 ft | 3 kts | 217° |
| 2026-05-04 13:07 | 37.93271 | 23.94646 | 305 ft | 8 kts | 217° |
| 2026-05-04 13:08 | 37.93223 | 23.94610 | 308 ft | 8 kts | 202° |
| 2026-05-04 13:08 | 37.93170 | 23.94597 | 306 ft | 8 kts | 184° |
| 2026-05-04 13:08 | 37.93118 | 23.94598 | 307 ft | 7 kts | 167° |
| 2026-05-04 13:08 | 37.93082 | 23.94635 | 308 ft | 7 kts | 124° |
| 2026-05-04 13:09 | 37.93052 | 23.94679 | 309 ft | 6 kts | 150° |
| 2026-05-04 13:09 | 37.93017 | 23.94674 | 308 ft | 5 kts | 201° |
| 2026-05-04 13:09 | 37.92985 | 23.94649 | 307 ft | 8 kts | 212° |
| 2026-05-04 13:09 | 37.92929 | 23.94599 | 309 ft | 11 kts | 217° |
| 2026-05-04 13:10 | 37.92873 | 23.94544 | 308 ft | 10 kts | 218° |
| 2026-05-04 13:10 | 37.92821 | 23.94494 | 310 ft | 9 kts | 216° |
| 2026-05-04 13:10 | 37.92773 | 23.94449 | 308 ft | 8 kts | 216° |
| 2026-05-04 13:10 | 37.92727 | 23.94406 | 309 ft | 8 kts | 216° |
| 2026-05-04 13:11 | 37.92679 | 23.94362 | 310 ft | 9 kts | 216° |
| 2026-05-04 13:11 | 37.92631 | 23.94315 | 310 ft | 8 kts | 217° |
| 2026-05-04 13:11 | 37.92585 | 23.94271 | 309 ft | 8 kts | 217° |
| 2026-05-04 13:11 | 37.92540 | 23.94228 | 310 ft | 8 kts | 217° |
| 2026-05-04 13:12 | 37.92496 | 23.94185 | 310 ft | 8 kts | 217° |
| 2026-05-04 13:12 | 37.92447 | 23.94166 | 310 ft | 7 kts | 172° |
| 2026-05-04 13:12 | 37.92419 | 23.94198 | 310 ft | 4 kts | 116° |
| 2026-05-04 13:12 | 37.92413 | 23.94240 | 311 ft | 6 kts | 94° |
| 2026-05-04 13:13 | 37.92413 | 23.94293 | 311 ft | 7 kts | 90° |
| 2026-05-04 13:13 | 37.92410 | 23.94356 | 314 ft | 7 kts | 83° |
| 2026-05-04 13:13 | 37.92435 | 23.94399 | 314 ft | 7 kts | 39° |
| 2026-05-04 13:13 | 37.92528 | 23.94492 | 314 ft | 38 kts | 37° |
| 2026-05-04 13:14 | 37.92890 | 23.94835 | 304 ft | 91 kts | 37° |
| 2026-05-04 13:14 | 37.93524 | 23.95437 | 289 ft | 136 kts | 37° |
| 2026-05-04 13:14 | 37.94384 | 23.96251 | 306 ft | 171 kts | 39° |
| 2026-05-04 13:14 | 37.95373 | 23.97138 | 693 ft | 176 kts | 37° |
| 2026-05-04 13:15 | 37.96362 | 23.98020 | 1345 ft | 172 kts | 35° |
| 2026-05-04 13:15 | 37.97336 | 23.98930 | 1902 ft | 177 kts | 33° |
| 2026-05-04 13:15 | 37.98330 | 23.99927 | 2318 ft | 191 kts | 34° |
| 2026-05-04 13:15 | 37.99394 | 24.01040 | 2569 ft | 206 kts | 36° |
| 2026-05-04 13:16 | 38.00564 | 24.02205 | 2826 ft | 222 kts | 32° |
| 2026-05-04 13:16 | 38.01875 | 24.03388 | 2991 ft | 242 kts | 30° |
| 2026-05-04 13:16 | 38.03339 | 24.04603 | 3263 ft | 258 kts | 30° |
| 2026-05-04 13:16 | 38.04771 | 24.05914 | 4149 ft | 249 kts | 35° |
| 2026-05-04 13:17 | 38.06170 | 24.07168 | 4901 ft | 247 kts | 24° |
| 2026-05-04 13:17 | 38.07819 | 24.07862 | 5268 ft | 254 kts | 2° |
| 2026-05-04 13:17 | 38.09556 | 24.07606 | 5845 ft | 253 kts | 336° |
| 2026-05-04 13:17 | 38.11017 | 24.06392 | 6472 ft | 254 kts | 316° |
| 2026-05-04 13:18 | 38.12190 | 24.04713 | 7164 ft | 255 kts | 308° |
| 2026-05-04 13:18 | 38.13200 | 24.02849 | 7810 ft | 258 kts | 303° |
| 2026-05-04 13:18 | 38.14143 | 24.00884 | 8459 ft | 262 kts | 302° |
| 2026-05-04 13:18 | 38.15076 | 23.98877 | 9116 ft | 266 kts | 303° |
| 2026-05-04 13:19 | 38.16033 | 23.96851 | 9699 ft | 271 kts | 303° |
| 2026-05-04 13:19 | 38.17028 | 23.94802 | 10311 ft | 275 kts | 304° |
| 2026-05-04 13:19 | 38.18066 | 23.92721 | 10579 ft | 290 kts | 305° |
| 2026-05-04 13:19 | 38.19190 | 23.90513 | 10809 ft | 306 kts | 306° |
| 2026-05-04 13:20 | 38.20403 | 23.88153 | 11064 ft | 322 kts | 306° |
| 2026-05-04 13:20 | 38.21641 | 23.85751 | 11278 ft | 337 kts | 305° |
| 2026-05-04 13:20 | 38.22948 | 23.83210 | 11532 ft | 349 kts | 305° |
| 2026-05-04 13:20 | 38.24287 | 23.80597 | 11994 ft | 356 kts | 305° |
| 2026-05-04 13:21 | 38.25645 | 23.77940 | 12493 ft | 360 kts | 306° |
| 2026-05-04 13:21 | 38.27018 | 23.75250 | 12966 ft | 365 kts | 306° |
| 2026-05-04 13:21 | 38.28403 | 23.72531 | 13553 ft | 365 kts | 306° |
| 2026-05-04 13:21 | 38.29787 | 23.69809 | 14117 ft | 368 kts | 306° |
| 2026-05-04 13:22 | 38.31185 | 23.67064 | 14563 ft | 371 kts | 306° |
| 2026-05-04 13:22 | 38.32597 | 23.64290 | 15002 ft | 375 kts | 306° |
| 2026-05-04 13:22 | 38.34017 | 23.61497 | 15429 ft | 379 kts | 306° |
| 2026-05-04 13:22 | 38.35454 | 23.58670 | 15890 ft | 382 kts | 305° |
| 2026-05-04 13:23 | 38.36905 | 23.55811 | 16278 ft | 387 kts | 305° |
| 2026-05-04 13:23 | 38.38373 | 23.52917 | 16692 ft | 391 kts | 304° |
| 2026-05-04 13:23 | 38.39853 | 23.49996 | 17140 ft | 393 kts | 306° |
| 2026-05-04 13:23 | 38.41344 | 23.47050 | 17563 ft | 397 kts | 305° |
| 2026-05-04 13:24 | 38.42851 | 23.44073 | 17956 ft | 401 kts | 305° |
| 2026-05-04 13:24 | 38.44368 | 23.41072 | 18449 ft | 402 kts | 304° |
| 2026-05-04 13:24 | 38.45873 | 23.38088 | 19057 ft | 398 kts | 304° |
| 2026-05-04 13:25 | 38.48874 | 23.32133 | 19878 ft | 401 kts | 305° |
| 2026-05-04 13:25 | 38.50386 | 23.29131 | 20287 ft | 402 kts | 305° |
| 2026-05-04 13:25 | 38.51897 | 23.26126 | 20704 ft | 403 kts | 305° |
| 2026-05-04 13:25 | 38.53417 | 23.23102 | 21027 ft | 407 kts | 305° |
| 2026-05-04 13:26 | 38.54961 | 23.20031 | 21181 ft | 415 kts | 304° |
| 2026-05-04 13:26 | 38.56525 | 23.16916 | 21518 ft | 417 kts | 304° |
| 2026-05-04 13:26 | 38.58089 | 23.13793 | 21958 ft | 417 kts | 304° |
| 2026-05-04 13:26 | 38.59654 | 23.10663 | 22351 ft | 418 kts | 304° |
| 2026-05-04 13:27 | 38.61210 | 23.07548 | 23010 ft | 411 kts | 306° |
| 2026-05-04 13:27 | 38.62732 | 23.04495 | 23682 ft | 406 kts | 306° |
| 2026-05-04 13:27 | 38.64254 | 23.01444 | 23986 ft | 408 kts | 306° |
| 2026-05-04 13:27 | 38.65784 | 22.98379 | 24253 ft | 410 kts | 306° |
| 2026-05-04 13:28 | 38.67322 | 22.95298 | 24527 ft | 412 kts | 306° |
| 2026-05-04 13:28 | 38.68862 | 22.92208 | 24813 ft | 412 kts | 306° |
| 2026-05-04 13:28 | 38.70405 | 22.89107 | 25102 ft | 414 kts | 306° |
| 2026-05-04 13:28 | 38.71952 | 22.85993 | 25374 ft | 415 kts | 306° |
| 2026-05-04 13:29 | 38.73497 | 22.82877 | 25648 ft | 415 kts | 306° |
| 2026-05-04 13:29 | 38.75049 | 22.79745 | 25922 ft | 416 kts | 306° |
| 2026-05-04 13:29 | 38.76599 | 22.76616 | 26255 ft | 415 kts | 306° |
| 2026-05-04 13:29 | 38.78124 | 22.73527 | 26929 ft | 407 kts | 306° |
| 2026-05-04 13:30 | 38.79641 | 22.70455 | 27264 ft | 407 kts | 306° |
| 2026-05-04 13:30 | 38.81163 | 22.67376 | 27463 ft | 410 kts | 306° |
| 2026-05-04 13:30 | 38.82693 | 22.64281 | 27688 ft | 412 kts | 306° |
| 2026-05-04 13:30 | 38.84231 | 22.61167 | 27919 ft | 414 kts | 306° |
| 2026-05-04 13:31 | 38.85771 | 22.58042 | 28150 ft | 415 kts | 306° |
| 2026-05-04 13:31 | 38.86795 | 22.55963 | 28303 ft | 416 kts | 306° |
| 2026-05-04 13:31 | 38.88340 | 22.52820 | 28537 ft | 418 kts | 306° |
| 2026-05-04 13:31 | 38.89891 | 22.49662 | 28763 ft | 419 kts | 306° |
| 2026-05-04 13:32 | 38.93029 | 22.43271 | 28929 ft | 426 kts | 306° |
| 2026-05-04 13:32 | 38.94605 | 22.40052 | 29246 ft | 425 kts | 306° |
| 2026-05-04 13:32 | 38.96179 | 22.36832 | 29484 ft | 426 kts | 306° |
| 2026-05-04 13:33 | 38.97758 | 22.33599 | 29720 ft | 427 kts | 306° |
| 2026-05-04 13:33 | 38.99333 | 22.30370 | 29997 ft | 426 kts | 306° |
| 2026-05-04 13:33 | 39.00900 | 22.27155 | 30322 ft | 425 kts | 306° |
| 2026-05-04 13:33 | 39.02469 | 22.23934 | 30562 ft | 424 kts | 306° |
| 2026-05-04 13:34 | 39.04034 | 22.20720 | 30810 ft | 424 kts | 306° |
| 2026-05-04 13:34 | 39.05593 | 22.17512 | 31046 ft | 423 kts | 306° |
| 2026-05-04 13:34 | 39.07152 | 22.14302 | 31309 ft | 422 kts | 306° |
| 2026-05-04 13:34 | 39.08707 | 22.11099 | 31574 ft | 421 kts | 306° |
| 2026-05-04 13:35 | 39.10226 | 22.07963 | 31906 ft | 418 kts | 306° |
| 2026-05-04 13:35 | 39.13295 | 22.01626 | 32372 ft | 417 kts | 306° |
| 2026-05-04 13:35 | 39.14825 | 21.98461 | 32586 ft | 416 kts | 306° |
| 2026-05-04 13:36 | 39.16355 | 21.95293 | 32806 ft | 416 kts | 306° |
| 2026-05-04 13:36 | 39.17884 | 21.92126 | 33012 ft | 416 kts | 306° |
| 2026-05-04 13:36 | 39.19407 | 21.88963 | 33261 ft | 415 kts | 306° |
| 2026-05-04 13:36 | 39.20929 | 21.85801 | 33454 ft | 415 kts | 306° |
| 2026-05-04 13:37 | 39.22451 | 21.82639 | 33661 ft | 415 kts | 306° |
| 2026-05-04 13:37 | 39.23974 | 21.79468 | 33852 ft | 415 kts | 306° |
| 2026-05-04 13:37 | 39.25489 | 21.76315 | 34085 ft | 413 kts | 305° |
| 2026-05-04 13:37 | 39.26998 | 21.73166 | 34274 ft | 413 kts | 306° |
| 2026-05-04 13:38 | 39.28515 | 21.70001 | 34306 ft | 416 kts | 306° |
| 2026-05-04 13:38 | 39.30037 | 21.66826 | 34440 ft | 416 kts | 306° |
| 2026-05-04 13:38 | 39.31555 | 21.63649 | 34625 ft | 415 kts | 306° |
| 2026-05-04 13:38 | 39.33072 | 21.60475 | 34742 ft | 416 kts | 305° |
| 2026-05-04 13:39 | 39.34593 | 21.57286 | 34862 ft | 417 kts | 305° |
| 2026-05-04 13:39 | 39.36116 | 21.54093 | 34998 ft | 418 kts | 305° |
| 2026-05-04 13:39 | 39.37636 | 21.50901 | 35163 ft | 418 kts | 305° |
| 2026-05-04 13:39 | 39.39161 | 21.47698 | 35298 ft | 418 kts | 305° |
| 2026-05-04 13:40 | 39.40683 | 21.44496 | 35430 ft | 419 kts | 305° |
| 2026-05-04 13:40 | 39.42210 | 21.41279 | 35559 ft | 419 kts | 305° |
| 2026-05-04 13:40 | 39.43731 | 21.38071 | 35713 ft | 419 kts | 305° |
| 2026-05-04 13:41 | 39.46780 | 21.31629 | 35906 ft | 420 kts | 305° |
| 2026-05-04 13:41 | 39.49833 | 21.25169 | 36079 ft | 421 kts | 305° |
| 2026-05-04 13:42 | 39.54417 | 21.15447 | 36095 ft | 421 kts | 305° |
| 2026-05-04 13:42 | 39.57463 | 21.08965 | 36092 ft | 421 kts | 305° |
| 2026-05-04 13:43 | 39.60510 | 21.02475 | 36098 ft | 421 kts | 304° |
| 2026-05-04 13:43 | 39.63555 | 20.95975 | 36100 ft | 422 kts | 305° |
| 2026-05-04 13:44 | 39.66604 | 20.89452 | 36102 ft | 423 kts | 304° |
| 2026-05-04 13:44 | 39.69706 | 20.82971 | 36102 ft | 422 kts | 309° |
| 2026-05-04 13:45 | 39.73356 | 20.77044 | 36107 ft | 419 kts | 312° |
| 2026-05-04 13:45 | 39.77129 | 20.71277 | 36100 ft | 419 kts | 313° |
| 2026-05-04 13:46 | 39.80901 | 20.65574 | 36094 ft | 419 kts | 313° |
| 2026-05-04 13:46 | 39.84695 | 20.59816 | 36078 ft | 419 kts | 313° |
| 2026-05-04 13:47 | 39.88475 | 20.54051 | 36078 ft | 419 kts | 313° |
| 2026-05-04 13:47 | 39.92249 | 20.48278 | 36082 ft | 419 kts | 313° |
| 2026-05-04 13:48 | 39.96025 | 20.42490 | 36080 ft | 419 kts | 313° |
| 2026-05-04 13:48 | 39.99800 | 20.36683 | 36078 ft | 420 kts | 313° |
| 2026-05-04 13:49 | 40.03562 | 20.30858 | 36086 ft | 420 kts | 312° |
| 2026-05-04 13:49 | 40.07319 | 20.25021 | 36082 ft | 420 kts | 312° |
| 2026-05-04 13:50 | 40.11071 | 20.19185 | 36094 ft | 420 kts | 312° |
| 2026-05-04 13:50 | 40.14819 | 20.13345 | 36071 ft | 419 kts | 312° |
| 2026-05-04 13:51 | 40.18563 | 20.07500 | 36090 ft | 418 kts | 312° |
| 2026-05-04 13:51 | 40.22294 | 20.01667 | 36104 ft | 418 kts | 312° |
| 2026-05-04 13:52 | 40.27873 | 19.92925 | 36105 ft | 420 kts | 312° |
| 2026-05-04 13:53 | 40.31615 | 19.87046 | 36097 ft | 420 kts | 312° |
| 2026-05-04 13:53 | 40.35352 | 19.81164 | 36100 ft | 420 kts | 312° |
| 2026-05-04 13:54 | 40.40945 | 19.72339 | 36115 ft | 419 kts | 311° |
| 2026-05-04 13:55 | 40.46530 | 19.63501 | 36114 ft | 419 kts | 311° |
| 2026-05-04 13:55 | 40.52108 | 19.54651 | 36100 ft | 419 kts | 311° |
| 2026-05-04 13:56 | 40.55828 | 19.48732 | 36100 ft | 420 kts | 311° |
| 2026-05-04 13:57 | 40.61405 | 19.39840 | 36109 ft | 421 kts | 311° |
| 2026-05-04 13:58 | 40.68851 | 19.27928 | 36107 ft | 421 kts | 311° |
| 2026-05-04 13:58 | 40.74427 | 19.18976 | 36109 ft | 421 kts | 311° |
| 2026-05-04 13:59 | 40.78142 | 19.12998 | 36109 ft | 421 kts | 311° |
| 2026-05-04 14:00 | 40.83688 | 19.04051 | 36110 ft | 423 kts | 311° |
| 2026-05-04 14:00 | 40.89259 | 18.95005 | 36115 ft | 423 kts | 309° |
| 2026-05-04 14:01 | 40.92743 | 18.88732 | 36112 ft | 424 kts | 307° |
| 2026-05-04 14:02 | 40.97802 | 18.79134 | 36112 ft | 424 kts | 307° |
| 2026-05-04 14:02 | 41.01187 | 18.72743 | 36110 ft | 424 kts | 307° |
| 2026-05-04 14:03 | 41.04581 | 18.66367 | 36109 ft | 424 kts | 307° |
| 2026-05-04 14:03 | 41.07985 | 18.59972 | 36111 ft | 424 kts | 307° |
| 2026-05-04 14:04 | 41.13079 | 18.50373 | 36111 ft | 425 kts | 307° |
| 2026-05-04 14:04 | 41.16479 | 18.43949 | 36110 ft | 425 kts | 307° |
| 2026-05-04 14:05 | 41.21567 | 18.34309 | 36109 ft | 425 kts | 306° |
| 2026-05-04 14:06 | 41.24960 | 18.27862 | 36111 ft | 425 kts | 306° |
| 2026-05-04 14:06 | 41.28347 | 18.21414 | 36112 ft | 425 kts | 306° |
| 2026-05-04 14:07 | 41.31728 | 18.14963 | 36113 ft | 425 kts | 306° |
| 2026-05-04 14:07 | 41.35087 | 18.08541 | 36110 ft | 425 kts | 306° |
| 2026-05-04 14:08 | 41.38463 | 18.02073 | 36109 ft | 425 kts | 306° |
| 2026-05-04 14:08 | 41.41838 | 17.95596 | 36111 ft | 425 kts | 306° |
| 2026-05-04 14:09 | 41.46889 | 17.85872 | 36109 ft | 425 kts | 306° |
| 2026-05-04 14:10 | 41.51933 | 17.76131 | 36110 ft | 426 kts | 306° |
| 2026-05-04 14:10 | 41.55294 | 17.69625 | 36106 ft | 426 kts | 306° |
| 2026-05-04 14:11 | 41.58656 | 17.63101 | 36108 ft | 426 kts | 306° |
| 2026-05-04 14:11 | 41.63695 | 17.53298 | 36103 ft | 426 kts | 305° |
| 2026-05-04 14:12 | 41.67045 | 17.46761 | 36111 ft | 426 kts | 305° |
| 2026-05-04 14:13 | 41.72073 | 17.36928 | 36099 ft | 427 kts | 305° |
| 2026-05-04 14:13 | 41.75430 | 17.30345 | 36106 ft | 429 kts | 305° |
| 2026-05-04 14:14 | 41.78789 | 17.23741 | 36105 ft | 429 kts | 305° |
| 2026-05-04 14:14 | 41.83821 | 17.13824 | 36106 ft | 429 kts | 305° |
| 2026-05-04 14:15 | 41.90494 | 17.00622 | 36097 ft | 429 kts | 304° |
| 2026-05-04 14:16 | 41.95517 | 16.90648 | 36096 ft | 430 kts | 304° |
| 2026-05-04 14:17 | 42.00534 | 16.80650 | 36103 ft | 431 kts | 304° |
| 2026-05-04 14:18 | 42.05550 | 16.70621 | 36105 ft | 431 kts | 304° |
| 2026-05-04 14:19 | 42.12232 | 16.57211 | 36106 ft | 431 kts | 304° |
| 2026-05-04 14:19 | 42.15566 | 16.50498 | 36090 ft | 431 kts | 304° |
| 2026-05-04 14:20 | 42.18896 | 16.43777 | 36106 ft | 431 kts | 303° |
| 2026-05-04 14:20 | 42.22222 | 16.37051 | 36084 ft | 431 kts | 303° |
| 2026-05-04 14:21 | 42.27208 | 16.26937 | 36098 ft | 432 kts | 303° |
| 2026-05-04 14:21 | 42.29969 | 16.21323 | 36100 ft | 432 kts | 303° |
| 2026-05-04 14:22 | 42.33295 | 16.14544 | 36094 ft | 432 kts | 303° |
| 2026-05-04 14:22 | 42.37153 | 16.06664 | 36093 ft | 432 kts | 303° |
| 2026-05-04 14:23 | 42.41580 | 15.97594 | 36092 ft | 432 kts | 303° |
| 2026-05-04 14:24 | 42.44893 | 15.90790 | 36091 ft | 433 kts | 303° |
| 2026-05-04 14:24 | 42.48205 | 15.83970 | 36091 ft | 433 kts | 303° |
| 2026-05-04 14:25 | 42.51504 | 15.77209 | 36088 ft | 433 kts | 305° |
| 2026-05-04 14:25 | 42.57538 | 15.68067 | 36089 ft | 435 kts | 313° |
| 2026-05-04 14:26 | 42.61810 | 15.62252 | 36087 ft | 436 kts | 314° |
| 2026-05-04 14:26 | 42.66111 | 15.56434 | 36089 ft | 437 kts | 314° |
| 2026-05-04 14:27 | 42.70405 | 15.50584 | 36089 ft | 437 kts | 313° |
| 2026-05-04 14:27 | 42.74686 | 15.44718 | 36089 ft | 437 kts | 313° |
| 2026-05-04 14:28 | 42.78964 | 15.38838 | 36099 ft | 437 kts | 313° |
| 2026-05-04 14:28 | 42.83237 | 15.32952 | 36091 ft | 437 kts | 313° |
| 2026-05-04 14:29 | 42.91778 | 15.21154 | 36086 ft | 438 kts | 313° |
| 2026-05-04 14:30 | 42.96052 | 15.15231 | 36089 ft | 438 kts | 313° |
| 2026-05-04 14:31 | 43.02455 | 15.06336 | 36086 ft | 438 kts | 313° |
| 2026-05-04 14:32 | 43.10990 | 14.94436 | 36078 ft | 438 kts | 313° |
| 2026-05-04 14:32 | 43.15253 | 14.88472 | 36088 ft | 439 kts | 313° |
| 2026-05-04 14:33 | 43.19522 | 14.82488 | 36090 ft | 439 kts | 313° |
| 2026-05-04 14:33 | 43.23786 | 14.76497 | 36090 ft | 439 kts | 313° |
| 2026-05-04 14:34 | 43.28046 | 14.70500 | 36077 ft | 439 kts | 312° |
| 2026-05-04 14:34 | 43.32310 | 14.64484 | 36097 ft | 439 kts | 312° |
| 2026-05-04 14:35 | 43.36566 | 14.58466 | 36072 ft | 439 kts | 312° |
| 2026-05-04 14:35 | 43.40824 | 14.52433 | 36095 ft | 439 kts | 312° |
| 2026-05-04 14:36 | 43.45078 | 14.46393 | 36072 ft | 439 kts | 312° |
| 2026-05-04 14:36 | 43.49331 | 14.40341 | 36077 ft | 439 kts | 312° |
| 2026-05-04 14:37 | 43.53573 | 14.34292 | 36086 ft | 440 kts | 312° |
| 2026-05-04 14:37 | 43.57824 | 14.28216 | 36079 ft | 440 kts | 312° |
| 2026-05-04 14:38 | 43.62077 | 14.22125 | 36081 ft | 440 kts | 312° |
| 2026-05-04 14:38 | 43.66298 | 14.16066 | 36071 ft | 442 kts | 312° |
| 2026-05-04 14:39 | 43.70554 | 14.09942 | 36072 ft | 442 kts | 312° |
| 2026-05-04 14:39 | 43.74812 | 14.03805 | 36103 ft | 442 kts | 312° |
| 2026-05-04 14:40 | 43.81208 | 13.94558 | 36077 ft | 444 kts | 311° |
| 2026-05-04 14:40 | 43.85472 | 13.88378 | 36083 ft | 444 kts | 311° |
| 2026-05-04 14:41 | 43.89736 | 13.82182 | 36075 ft | 445 kts | 311° |
| 2026-05-04 14:42 | 43.98301 | 13.69696 | 36074 ft | 447 kts | 311° |
| 2026-05-04 14:42 | 44.02584 | 13.63432 | 36076 ft | 447 kts | 311° |
| 2026-05-04 14:43 | 44.06864 | 13.57159 | 36076 ft | 447 kts | 311° |
| 2026-05-04 14:43 | 44.11138 | 13.50880 | 36076 ft | 447 kts | 311° |
| 2026-05-04 14:44 | 44.15410 | 13.44589 | 36080 ft | 447 kts | 311° |
| 2026-05-04 14:44 | 44.19680 | 13.38287 | 36079 ft | 447 kts | 311° |
| 2026-05-04 14:45 | 44.23955 | 13.31963 | 36076 ft | 448 kts | 311° |
| 2026-05-04 14:45 | 44.28227 | 13.25630 | 36082 ft | 449 kts | 311° |
| 2026-05-04 14:46 | 44.32503 | 13.19277 | 36079 ft | 449 kts | 311° |
| 2026-05-04 14:46 | 44.36746 | 13.12957 | 36076 ft | 448 kts | 310° |
| 2026-05-04 14:47 | 44.41009 | 13.06595 | 36065 ft | 448 kts | 310° |
| 2026-05-04 14:47 | 44.45261 | 13.00232 | 36081 ft | 448 kts | 310° |
| 2026-05-04 14:48 | 44.49526 | 12.93836 | 36064 ft | 451 kts | 310° |
| 2026-05-04 14:48 | 44.53803 | 12.87407 | 36076 ft | 451 kts | 310° |
| 2026-05-04 14:49 | 44.58081 | 12.80964 | 36071 ft | 451 kts | 310° |
| 2026-05-04 14:49 | 44.62348 | 12.74521 | 36070 ft | 451 kts | 310° |
| 2026-05-04 14:50 | 44.66610 | 12.68070 | 36071 ft | 450 kts | 310° |
| 2026-05-04 14:50 | 44.70871 | 12.61606 | 36070 ft | 451 kts | 310° |
| 2026-05-04 14:51 | 44.75136 | 12.55120 | 36077 ft | 452 kts | 310° |
| 2026-05-04 14:51 | 44.79392 | 12.48634 | 36072 ft | 451 kts | 310° |
| 2026-05-04 14:52 | 44.83638 | 12.42147 | 36069 ft | 451 kts | 310° |
| 2026-05-04 14:52 | 44.87884 | 12.35646 | 36070 ft | 451 kts | 310° |
| 2026-05-04 14:53 | 44.92130 | 12.29129 | 36076 ft | 451 kts | 310° |
| 2026-05-04 14:53 | 44.96372 | 12.22603 | 36064 ft | 452 kts | 310° |
| 2026-05-04 14:54 | 45.00618 | 12.16055 | 36061 ft | 452 kts | 310° |
| 2026-05-04 14:54 | 45.04859 | 12.09499 | 36062 ft | 452 kts | 310° |
| 2026-05-04 14:55 | 45.09094 | 12.02938 | 36058 ft | 452 kts | 310° |
| 2026-05-04 14:55 | 45.13331 | 11.96357 | 36062 ft | 452 kts | 309° |
| 2026-05-04 14:56 | 45.17552 | 11.89786 | 36061 ft | 451 kts | 309° |
| 2026-05-04 14:56 | 45.21783 | 11.83183 | 36059 ft | 453 kts | 309° |
| 2026-05-04 14:57 | 45.26009 | 11.76572 | 36052 ft | 453 kts | 309° |
| 2026-05-04 14:57 | 45.30208 | 11.69988 | 36052 ft | 452 kts | 309° |
| 2026-05-04 14:58 | 45.34432 | 11.63352 | 36051 ft | 452 kts | 309° |
| 2026-05-04 14:58 | 45.38631 | 11.56736 | 36059 ft | 450 kts | 309° |
| 2026-05-04 14:59 | 45.42831 | 11.50102 | 36041 ft | 454 kts | 309° |
| 2026-05-04 15:00 | 45.49178 | 11.40046 | 36047 ft | 455 kts | 309° |
| 2026-05-04 15:00 | 45.53402 | 11.33336 | 36066 ft | 455 kts | 309° |
| 2026-05-04 15:01 | 45.59733 | 11.23248 | 36051 ft | 455 kts | 309° |
| 2026-05-04 15:01 | 45.63946 | 11.16514 | 36070 ft | 455 kts | 308° |
| 2026-05-04 15:02 | 45.68168 | 11.09746 | 36070 ft | 456 kts | 308° |
| 2026-05-04 15:02 | 45.72387 | 11.02968 | 36084 ft | 456 kts | 308° |
| 2026-05-04 15:03 | 45.76597 | 10.96189 | 36074 ft | 454 kts | 308° |
| 2026-05-04 15:03 | 45.80782 | 10.89436 | 36079 ft | 453 kts | 308° |
| 2026-05-04 15:04 | 45.84967 | 10.82661 | 36084 ft | 454 kts | 308° |
| 2026-05-04 15:04 | 45.89153 | 10.75868 | 36096 ft | 456 kts | 308° |
| 2026-05-04 15:05 | 45.93427 | 10.69203 | 36100 ft | 459 kts | 314° |
| 2026-05-04 15:05 | 45.98266 | 10.63223 | 36103 ft | 459 kts | 317° |
| 2026-05-04 15:06 | 46.03205 | 10.57399 | 36110 ft | 459 kts | 317° |
| 2026-05-04 15:07 | 46.10633 | 10.48692 | 36121 ft | 459 kts | 317° |
| 2026-05-04 15:07 | 46.15591 | 10.42838 | 36122 ft | 461 kts | 317° |
| 2026-05-04 15:08 | 46.20546 | 10.36965 | 36128 ft | 461 kts | 317° |
| 2026-05-04 15:08 | 46.25498 | 10.31078 | 36131 ft | 461 kts | 317° |
| 2026-05-04 15:09 | 46.30435 | 10.25194 | 36128 ft | 460 kts | 317° |
| 2026-05-04 15:09 | 46.35374 | 10.19295 | 36128 ft | 460 kts | 317° |
| 2026-05-04 15:10 | 46.42768 | 10.10442 | 36151 ft | 460 kts | 317° |
| 2026-05-04 15:11 | 46.49316 | 10.02506 | 36158 ft | 460 kts | 315° |
| 2026-05-04 15:11 | 46.54112 | 9.96364 | 36163 ft | 460 kts | 315° |
| 2026-05-04 15:12 | 46.58874 | 9.90166 | 36156 ft | 459 kts | 315° |
| 2026-05-04 15:12 | 46.63636 | 9.83977 | 36156 ft | 459 kts | 315° |
| 2026-05-04 15:13 | 46.68396 | 9.77798 | 36144 ft | 459 kts | 315° |
| 2026-05-04 15:13 | 46.73164 | 9.71602 | 36122 ft | 460 kts | 314° |
| 2026-05-04 15:14 | 46.77938 | 9.65383 | 36113 ft | 461 kts | 315° |
| 2026-05-04 15:14 | 46.82710 | 9.59150 | 36061 ft | 460 kts | 315° |
| 2026-05-04 15:15 | 46.87480 | 9.52905 | 36060 ft | 460 kts | 314° |
| 2026-05-04 15:15 | 46.92252 | 9.46640 | 36035 ft | 461 kts | 314° |
| 2026-05-04 15:16 | 46.99398 | 9.37231 | 36026 ft | 462 kts | 315° |
| 2026-05-04 15:16 | 47.04746 | 9.31902 | 36014 ft | 470 kts | 332° |
| 2026-05-04 15:17 | 47.07805 | 9.30192 | 36013 ft | 474 kts | 341° |
| 2026-05-04 15:17 | 47.14376 | 9.28724 | 36004 ft | 480 kts | 352° |
| 2026-05-04 15:17 | 47.17697 | 9.28344 | 35988 ft | 481 kts | 353° |
| 2026-05-04 15:18 | 47.24377 | 9.27744 | 35990 ft | 481 kts | 354° |
| 2026-05-04 15:19 | 47.34397 | 9.26819 | 35972 ft | 481 kts | 353° |
| 2026-05-04 15:19 | 47.44415 | 9.25802 | 35970 ft | 481 kts | 353° |
| 2026-05-04 15:20 | 47.51100 | 9.25112 | 35964 ft | 482 kts | 353° |
| 2026-05-04 15:20 | 47.57785 | 9.24421 | 35958 ft | 482 kts | 353° |
| 2026-05-04 15:21 | 47.64480 | 9.23730 | 35969 ft | 483 kts | 353° |
| 2026-05-04 15:22 | 47.74547 | 9.22687 | 35957 ft | 484 kts | 353° |
| 2026-05-04 15:22 | 47.84626 | 9.21640 | 35956 ft | 484 kts | 353° |
| 2026-05-04 15:23 | 47.91338 | 9.20940 | 35953 ft | 483 kts | 353° |
| 2026-05-04 15:23 | 47.98047 | 9.20238 | 35958 ft | 483 kts | 353° |
| 2026-05-04 15:24 | 48.11456 | 9.18831 | 35952 ft | 483 kts | 353° |
| 2026-05-04 15:25 | 48.18181 | 9.18674 | 35972 ft | 485 kts | 1° |
| 2026-05-04 15:26 | 48.28275 | 9.20161 | 35954 ft | 487 kts | 4° |
| 2026-05-04 15:26 | 48.38378 | 9.21917 | 35954 ft | 487 kts | 4° |
| 2026-05-04 15:27 | 48.48481 | 9.23649 | 35958 ft | 487 kts | 4° |
| 2026-05-04 15:28 | 48.58545 | 9.25113 | 35965 ft | 484 kts | 356° |
| 2026-05-04 15:28 | 48.65102 | 9.23523 | 35965 ft | 474 kts | 337° |
| 2026-05-04 15:29 | 48.68188 | 9.21786 | 35965 ft | 473 kts | 334° |
| 2026-05-04 15:30 | 48.89301 | 9.07720 | 35965 ft | 475 kts | 332° |
| 2026-05-04 15:31 | 48.98309 | 9.01489 | 35962 ft | 474 kts | 331° |
| 2026-05-04 15:32 | 49.13283 | 8.91036 | 35970 ft | 473 kts | 331° |
| 2026-05-04 15:34 | 49.28747 | 8.82054 | 35968 ft | 480 kts | 338° |
| 2026-05-04 15:34 | 49.38296 | 8.77419 | 35968 ft | 480 kts | 339° |
| 2026-05-04 15:35 | 49.47842 | 8.72757 | 35965 ft | 479 kts | 338° |
| 2026-05-04 15:36 | 49.57376 | 8.68061 | 35966 ft | 479 kts | 338° |
| 2026-05-04 15:36 | 49.63723 | 8.64923 | 35968 ft | 479 kts | 338° |
| 2026-05-04 15:37 | 49.69972 | 8.61428 | 35968 ft | 474 kts | 329° |
| 2026-05-04 15:37 | 49.75329 | 8.55752 | 35970 ft | 465 kts | 315° |
| 2026-05-04 15:38 | 49.80111 | 8.49051 | 35970 ft | 463 kts | 310° |
| 2026-05-04 15:38 | 49.83975 | 8.41261 | 35971 ft | 452 kts | 294° |
| 2026-05-04 15:39 | 49.86102 | 8.32256 | 35975 ft | 443 kts | 279° |
| 2026-05-04 15:40 | 49.87895 | 8.18223 | 35992 ft | 442 kts | 276° |
| 2026-05-04 15:40 | 49.88973 | 8.08888 | 35976 ft | 443 kts | 276° |
| 2026-05-04 15:41 | 49.90080 | 7.99473 | 35982 ft | 444 kts | 276° |
| 2026-05-04 15:41 | 49.91208 | 7.90001 | 35982 ft | 444 kts | 276° |
| 2026-05-04 15:42 | 49.92320 | 7.80645 | 35987 ft | 444 kts | 276° |
| 2026-05-04 15:42 | 49.93430 | 7.71229 | 35982 ft | 444 kts | 276° |
| 2026-05-04 15:43 | 49.94534 | 7.61783 | 35997 ft | 445 kts | 276° |
| 2026-05-04 15:43 | 49.95630 | 7.52336 | 35986 ft | 444 kts | 276° |
| 2026-05-04 15:44 | 49.96717 | 7.42893 | 35990 ft | 444 kts | 276° |
| 2026-05-04 15:44 | 49.97796 | 7.33454 | 35997 ft | 444 kts | 276° |
| 2026-05-04 15:45 | 49.98869 | 7.23988 | 35998 ft | 445 kts | 276° |
| 2026-05-04 15:45 | 49.99934 | 7.14525 | 35994 ft | 445 kts | 276° |
| 2026-05-04 15:46 | 50.00993 | 7.05049 | 35991 ft | 445 kts | 276° |
| 2026-05-04 15:46 | 50.02072 | 6.95571 | 35990 ft | 446 kts | 278° |
| 2026-05-04 15:47 | 50.04202 | 6.86442 | 35985 ft | 454 kts | 291° |
| 2026-05-04 15:47 | 50.07159 | 6.77707 | 35980 ft | 457 kts | 294° |
| 2026-05-04 15:48 | 50.10265 | 6.69049 | 35981 ft | 458 kts | 295° |
| 2026-05-04 15:48 | 50.14916 | 6.56031 | 35978 ft | 458 kts | 294° |
| 2026-05-04 15:49 | 50.18170 | 6.47480 | 35978 ft | 462 kts | 302° |
| 2026-05-04 15:49 | 50.22665 | 6.40181 | 35990 ft | 470 kts | 314° |
| 2026-05-04 15:50 | 50.27673 | 6.33534 | 35987 ft | 474 kts | 316° |
| 2026-05-04 15:50 | 50.32773 | 6.27002 | 35994 ft | 473 kts | 316° |
| 2026-05-04 15:51 | 50.37858 | 6.20451 | 35994 ft | 473 kts | 316° |
| 2026-05-04 15:51 | 50.42920 | 6.13861 | 35993 ft | 473 kts | 316° |
| 2026-05-04 15:52 | 50.47973 | 6.07241 | 35994 ft | 473 kts | 316° |
| 2026-05-04 15:52 | 50.52984 | 6.00656 | 35995 ft | 473 kts | 316° |
| 2026-05-04 15:53 | 50.58024 | 5.94014 | 35990 ft | 474 kts | 316° |
| 2026-05-04 15:53 | 50.62810 | 5.86870 | 35987 ft | 467 kts | 304° |
| 2026-05-04 15:54 | 50.65617 | 5.79747 | 35983 ft | 457 kts | 289° |
| 2026-05-04 15:54 | 50.67669 | 5.70343 | 35975 ft | 453 kts | 282° |
| 2026-05-04 15:55 | 50.69461 | 5.60811 | 35998 ft | 454 kts | 283° |
| 2026-05-04 15:55 | 50.71338 | 5.51274 | 35994 ft | 456 kts | 283° |
| 2026-05-04 15:56 | 50.73258 | 5.41717 | 35994 ft | 457 kts | 283° |
| 2026-05-04 15:56 | 50.75179 | 5.32143 | 35990 ft | 457 kts | 283° |
| 2026-05-04 15:57 | 50.77089 | 5.22565 | 35986 ft | 457 kts | 283° |
| 2026-05-04 15:57 | 50.78985 | 5.12988 | 35983 ft | 457 kts | 283° |
| 2026-05-04 15:58 | 50.80846 | 5.03540 | 36070 ft | 446 kts | 283° |
| 2026-05-04 15:58 | 50.82639 | 4.94199 | 36261 ft | 448 kts | 283° |
| 2026-05-04 15:59 | 50.84433 | 4.84721 | 36351 ft | 452 kts | 283° |
| 2026-05-04 15:59 | 50.86243 | 4.75121 | 36440 ft | 457 kts | 283° |
| 2026-05-04 16:00 | 50.87150 | 4.70308 | 36563 ft | 457 kts | 283° |
| 2026-05-04 16:00 | 50.88057 | 4.65483 | 36691 ft | 457 kts | 283° |
| 2026-05-04 16:00 | 50.89964 | 4.55841 | 36874 ft | 461 kts | 289° |
| 2026-05-04 16:01 | 50.91351 | 4.51245 | 37008 ft | 464 kts | 295° |
| 2026-05-04 16:01 | 50.92932 | 4.46784 | 37130 ft | 465 kts | 297° |
| 2026-05-04 16:01 | 50.94582 | 4.42362 | 37269 ft | 465 kts | 298° |
| 2026-05-04 16:01 | 50.96259 | 4.37987 | 37404 ft | 465 kts | 298° |
| 2026-05-04 16:02 | 50.97953 | 4.33612 | 37514 ft | 465 kts | 298° |
| 2026-05-04 16:02 | 50.99647 | 4.29237 | 37624 ft | 465 kts | 298° |
| 2026-05-04 16:02 | 51.03014 | 4.20479 | 37886 ft | 464 kts | 298° |
| 2026-05-04 16:03 | 51.04687 | 4.16093 | 37966 ft | 465 kts | 298° |
| 2026-05-04 16:03 | 51.08035 | 4.07273 | 37972 ft | 465 kts | 298° |
| 2026-05-04 16:04 | 51.11367 | 3.98457 | 37972 ft | 465 kts | 298° |
| 2026-05-04 16:04 | 51.16350 | 3.85216 | 37967 ft | 465 kts | 298° |
| 2026-05-04 16:05 | 51.19660 | 3.76384 | 37972 ft | 465 kts | 298° |
| 2026-05-04 16:06 | 51.23905 | 3.62594 | 37966 ft | 459 kts | 283° |
| 2026-05-04 16:07 | 51.26735 | 3.42749 | 37978 ft | 458 kts | 279° |
| 2026-05-04 16:08 | 51.29261 | 3.22780 | 37981 ft | 459 kts | 279° |
| 2026-05-04 16:09 | 51.32429 | 2.97759 | 37994 ft | 459 kts | 279° |
| 2026-05-04 16:10 | 51.34927 | 2.77727 | 37987 ft | 460 kts | 278° |
| 2026-05-04 16:11 | 51.37402 | 2.57659 | 37985 ft | 460 kts | 278° |
| 2026-05-04 16:12 | 51.41053 | 2.27521 | 37991 ft | 460 kts | 278° |
| 2026-05-04 16:13 | 51.43500 | 2.07408 | 37994 ft | 460 kts | 278° |
| 2026-05-04 16:14 | 51.45906 | 1.87266 | 37988 ft | 460 kts | 278° |
| 2026-05-04 16:16 | 51.48820 | 1.61971 | 37990 ft | 462 kts | 278° |
| 2026-05-04 16:17 | 51.51678 | 1.36692 | 37991 ft | 463 kts | 278° |
| 2026-05-04 16:18 | 51.53543 | 1.16277 | 38000 ft | 460 kts | 266° |
| 2026-05-04 16:19 | 51.51553 | 1.01408 | 37997 ft | 455 kts | 249° |
| 2026-05-04 16:19 | 51.49413 | 0.91861 | 38014 ft | 455 kts | 248° |
| 2026-05-04 16:20 | 51.43902 | 0.67965 | 38016 ft | 457 kts | 248° |
| 2026-05-04 16:22 | 51.38423 | 0.44045 | 38007 ft | 458 kts | 248° |
| 2026-05-04 16:23 | 51.31764 | 0.15338 | 37976 ft | 459 kts | 248° |
| 2026-05-04 16:25 | 51.25023 | -0.13328 | 37991 ft | 460 kts | 248° |
| 2026-05-04 16:26 | 51.17057 | -0.46723 | 37997 ft | 460 kts | 248° |
| 2026-05-04 16:28 | 51.11311 | -0.70496 | 37996 ft | 460 kts | 247° |
| 2026-05-04 16:29 | 51.03199 | -1.03630 | 37997 ft | 461 kts | 247° |
| 2026-05-04 16:31 | 50.97316 | -1.27347 | 37994 ft | 462 kts | 247° |
| 2026-05-04 16:32 | 50.92624 | -1.57040 | 37997 ft | 465 kts | 257° |
| 2026-05-04 16:33 | 50.90059 | -1.77148 | 37996 ft | 466 kts | 257° |
| 2026-05-04 16:34 | 50.88087 | -1.92204 | 37986 ft | 466 kts | 257° |
| 2026-05-04 16:35 | 50.84069 | -2.22378 | 37988 ft | 467 kts | 257° |
| 2026-05-04 16:36 | 50.82033 | -2.37436 | 37995 ft | 467 kts | 257° |
| 2026-05-04 16:37 | 50.79975 | -2.52497 | 38004 ft | 468 kts | 257° |
| 2026-05-04 16:38 | 50.77553 | -2.72727 | 37995 ft | 468 kts | 259° |
| 2026-05-04 16:39 | 50.74616 | -2.97977 | 37995 ft | 470 kts | 258° |
| 2026-05-04 16:40 | 50.72186 | -3.18240 | 37994 ft | 470 kts | 258° |
| 2026-05-04 16:41 | 50.69301 | -3.41913 | 37993 ft | 471 kts | 258° |
| 2026-05-04 16:43 | 50.66157 | -3.67246 | 37991 ft | 471 kts | 258° |
| 2026-05-04 16:43 | 50.64241 | -3.82451 | 37992 ft | 473 kts | 258° |
| 2026-05-04 16:45 | 50.60203 | -4.12964 | 37998 ft | 475 kts | 257° |
| 2026-05-04 16:46 | 50.56681 | -4.38343 | 37999 ft | 475 kts | 257° |
| 2026-05-04 16:47 | 50.53844 | -4.58553 | 37998 ft | 474 kts | 257° |
| 2026-05-04 16:48 | 50.50959 | -4.78820 | 38020 ft | 477 kts | 257° |
| 2026-05-04 16:49 | 50.48028 | -4.99141 | 38020 ft | 477 kts | 257° |
| 2026-05-04 16:50 | 50.45059 | -5.19450 | 38020 ft | 477 kts | 256° |
| 2026-05-04 16:51 | 50.42811 | -5.34657 | 38011 ft | 477 kts | 256° |
| 2026-05-04 16:52 | 50.39782 | -5.54918 | 38016 ft | 477 kts | 256° |
| 2026-05-04 16:53 | 50.37486 | -5.70095 | 38009 ft | 477 kts | 256° |
| 2026-05-04 16:54 | 50.34395 | -5.90311 | 38009 ft | 477 kts | 256° |
| 2026-05-04 16:55 | 50.29700 | -6.20540 | 38007 ft | 478 kts | 256° |
| 2026-05-04 16:56 | 50.25715 | -6.45765 | 38011 ft | 478 kts | 256° |
| 2026-05-04 16:57 | 50.23291 | -6.60921 | 38005 ft | 481 kts | 256° |
| 2026-05-04 16:58 | 50.20024 | -6.81130 | 38003 ft | 479 kts | 256° |
| 2026-05-04 17:00 | 50.15058 | -7.11391 | 38011 ft | 481 kts | 256° |
| 2026-05-04 17:01 | 50.10851 | -7.36618 | 38016 ft | 482 kts | 256° |
| 2026-05-04 17:02 | 50.07429 | -7.56864 | 38019 ft | 483 kts | 256° |
| 2026-05-04 17:03 | 50.04838 | -7.72037 | 38018 ft | 483 kts | 255° |
| 2026-05-04 17:03 | 50.02225 | -7.87207 | 38021 ft | 485 kts | 256° |
| 2026-05-04 17:04 | 50.00230 | -8.07778 | 38024 ft | 482 kts | 272° |
| 2026-05-04 17:05 | 50.00797 | -8.28591 | 38020 ft | 482 kts | 275° |
| 2026-05-04 17:06 | 50.01257 | -8.44236 | 38034 ft | 483 kts | 274° |
| 2026-05-04 17:07 | 50.01616 | -8.58128 | 38038 ft | 484 kts | 274° |
| 2026-05-04 17:07 | 50.01914 | -8.70323 | 38038 ft | 483 kts | 274° |
| 2026-05-04 17:08 | 50.02277 | -8.85901 | 38047 ft | 482 kts | 274° |
| 2026-05-04 17:09 | 50.02509 | -8.96328 | 38049 ft | 483 kts | 274° |
| 2026-05-04 17:09 | 50.02732 | -9.06751 | 38051 ft | 482 kts | 274° |
| 2026-05-04 17:10 | 50.03248 | -9.32816 | 38057 ft | 482 kts | 273° |
| 2026-05-04 17:11 | 50.03437 | -9.43234 | 38056 ft | 482 kts | 273° |
| 2026-05-04 17:12 | 50.03705 | -9.58880 | 38063 ft | 482 kts | 273° |
| 2026-05-04 17:13 | 50.04104 | -9.84957 | 38085 ft | 482 kts | 273° |
| 2026-05-04 17:14 | 50.04381 | -10.05829 | 38085 ft | 483 kts | 273° |
| 2026-05-04 17:15 | 50.04564 | -10.21502 | 38077 ft | 483 kts | 273° |
| 2026-05-04 17:16 | 50.04776 | -10.42402 | 38071 ft | 483 kts | 272° |
| 2026-05-04 17:17 | 50.04950 | -10.63230 | 38090 ft | 483 kts | 272° |
| 2026-05-04 17:18 | 50.05087 | -10.84136 | 38098 ft | 483 kts | 272° |
| 2026-05-04 17:19 | 50.05187 | -11.05043 | 38100 ft | 483 kts | 272° |
| 2026-05-04 17:20 | 50.05249 | -11.25964 | 38108 ft | 484 kts | 272° |
| 2026-05-04 17:20 | 50.05271 | -11.41661 | 38119 ft | 483 kts | 272° |
| 2026-05-04 17:21 | 50.05267 | -11.62570 | 38124 ft | 483 kts | 272° |
| 2026-05-04 17:22 | 50.05251 | -11.73026 | 38126 ft | 483 kts | 272° |
| 2026-05-04 17:23 | 50.05191 | -11.93914 | 38132 ft | 483 kts | 272° |
| 2026-05-04 17:24 | 50.05121 | -12.09584 | 38135 ft | 482 kts | 272° |
| 2026-05-04 17:25 | 50.04996 | -12.30442 | 38146 ft | 482 kts | 272° |
| 2026-05-04 17:26 | 50.04833 | -12.51295 | 38153 ft | 481 kts | 271° |
| 2026-05-04 17:27 | 50.04596 | -12.75534 | 38160 ft | 480 kts | 271° |
| 2026-05-04 17:28 | 50.04353 | -12.96321 | 38172 ft | 480 kts | 271° |
| 2026-05-04 17:29 | 50.03921 | -13.27387 | 38181 ft | 479 kts | 271° |
| 2026-05-04 17:31 | 50.03499 | -13.53159 | 38189 ft | 477 kts | 271° |
| 2026-05-04 17:32 | 50.03021 | -13.78944 | 38192 ft | 477 kts | 271° |
| 2026-05-04 17:33 | 50.02597 | -13.99537 | 38194 ft | 475 kts | 270° |
| 2026-05-04 17:34 | 50.02139 | -14.20033 | 38203 ft | 473 kts | 270° |
| 2026-05-04 17:35 | 50.01517 | -14.45608 | 38203 ft | 473 kts | 270° |
| 2026-05-04 17:36 | 50.01253 | -14.55828 | 38208 ft | 473 kts | 270° |
| 2026-05-04 17:36 | 50.00980 | -14.66046 | 38208 ft | 473 kts | 270° |
| 2026-05-04 17:37 | 50.00697 | -14.76283 | 38210 ft | 473 kts | 270° |
| 2026-05-04 17:37 | 50.00406 | -14.86478 | 38213 ft | 471 kts | 270° |
| 2026-05-04 17:38 | 50.00242 | -14.96633 | 38219 ft | 468 kts | 276° |
| 2026-05-04 17:38 | 50.01497 | -15.06469 | 38219 ft | 463 kts | 289° |
| 2026-05-04 17:39 | 50.04593 | -15.20701 | 38219 ft | 463 kts | 292° |
| 2026-05-04 17:39 | 50.06749 | -15.30140 | 38218 ft | 462 kts | 291° |
| 2026-05-04 17:40 | 50.08870 | -15.39567 | 38225 ft | 461 kts | 291° |
| 2026-05-04 17:40 | 50.10961 | -15.48995 | 38225 ft | 461 kts | 291° |
| 2026-05-04 17:41 | 50.13040 | -15.58440 | 38233 ft | 461 kts | 291° |
| 2026-05-04 17:41 | 50.15098 | -15.67830 | 38232 ft | 461 kts | 291° |
| 2026-05-04 17:42 | 50.17161 | -15.77282 | 38222 ft | 461 kts | 291° |
| 2026-05-04 17:42 | 50.19213 | -15.86728 | 38236 ft | 459 kts | 291° |
| 2026-05-04 17:43 | 50.21251 | -15.96152 | 38236 ft | 457 kts | 291° |
| 2026-05-04 17:43 | 50.23278 | -16.05564 | 38240 ft | 457 kts | 290° |
| 2026-05-04 17:44 | 50.25294 | -16.14971 | 38243 ft | 456 kts | 290° |
| 2026-05-04 17:44 | 50.27302 | -16.24383 | 38251 ft | 456 kts | 290° |
| 2026-05-04 17:45 | 50.29302 | -16.33802 | 38247 ft | 456 kts | 290° |
| 2026-05-04 17:45 | 50.31288 | -16.43199 | 38254 ft | 454 kts | 290° |
| 2026-05-04 17:46 | 50.33261 | -16.52575 | 38255 ft | 454 kts | 290° |
| 2026-05-04 17:46 | 50.35229 | -16.61970 | 38256 ft | 454 kts | 290° |
| 2026-05-04 17:47 | 50.37191 | -16.71383 | 38262 ft | 455 kts | 289° |
| 2026-05-04 17:47 | 50.39136 | -16.80764 | 38259 ft | 452 kts | 289° |
| 2026-05-04 17:48 | 50.41069 | -16.90126 | 38261 ft | 450 kts | 289° |
| 2026-05-04 17:48 | 50.42990 | -16.99471 | 38266 ft | 450 kts | 289° |
| 2026-05-04 17:49 | 50.44891 | -17.08767 | 38263 ft | 451 kts | 289° |
| 2026-05-04 17:49 | 50.46800 | -17.18143 | 38272 ft | 451 kts | 289° |
| 2026-05-04 17:50 | 50.48702 | -17.27527 | 38271 ft | 451 kts | 289° |
| 2026-05-04 17:50 | 50.50593 | -17.36911 | 38277 ft | 450 kts | 289° |
| 2026-05-04 17:51 | 50.52473 | -17.46275 | 38275 ft | 450 kts | 289° |
| 2026-05-04 17:51 | 50.54346 | -17.55656 | 38278 ft | 450 kts | 288° |
| 2026-05-04 17:52 | 50.56217 | -17.65066 | 38284 ft | 451 kts | 289° |
| 2026-05-04 17:52 | 50.58075 | -17.74460 | 38285 ft | 450 kts | 289° |
| 2026-05-04 17:53 | 50.59925 | -17.83861 | 38287 ft | 449 kts | 288° |
| 2026-05-04 17:53 | 50.61766 | -17.93261 | 38288 ft | 450 kts | 288° |
| 2026-05-04 17:54 | 50.63602 | -18.02679 | 38294 ft | 450 kts | 288° |
| 2026-05-04 17:54 | 50.65430 | -18.12103 | 38293 ft | 449 kts | 288° |
| 2026-05-04 17:55 | 50.67246 | -18.21514 | 38295 ft | 448 kts | 288° |
| 2026-05-04 17:55 | 50.69050 | -18.30904 | 38293 ft | 447 kts | 288° |
| 2026-05-04 17:56 | 50.70846 | -18.40303 | 38293 ft | 448 kts | 288° |
| 2026-05-04 17:56 | 50.72636 | -18.49718 | 38301 ft | 448 kts | 288° |
| 2026-05-04 17:57 | 50.74422 | -18.59158 | 38299 ft | 448 kts | 288° |
| 2026-05-04 17:57 | 50.76198 | -18.68588 | 38306 ft | 448 kts | 288° |
| 2026-05-04 17:58 | 50.77964 | -18.78015 | 38303 ft | 447 kts | 287° |
| 2026-05-04 17:58 | 50.79721 | -18.87445 | 38302 ft | 447 kts | 287° |
| 2026-05-04 17:59 | 50.81471 | -18.96881 | 38309 ft | 448 kts | 287° |
| 2026-05-04 18:00 | 50.84070 | -19.10991 | 38313 ft | 447 kts | 287° |
| 2026-05-04 18:00 | 50.85799 | -19.20434 | 38319 ft | 447 kts | 287° |
| 2026-05-04 18:01 | 50.87519 | -19.29885 | 38311 ft | 447 kts | 287° |
| 2026-05-04 18:01 | 50.89235 | -19.39352 | 38312 ft | 448 kts | 287° |
| 2026-05-04 18:02 | 50.91795 | -19.53576 | 38311 ft | 447 kts | 287° |
| 2026-05-04 18:02 | 50.93490 | -19.63058 | 38330 ft | 447 kts | 287° |
| 2026-05-04 18:03 | 50.95178 | -19.72543 | 38315 ft | 447 kts | 286° |
| 2026-05-04 18:03 | 50.96860 | -19.82052 | 38329 ft | 447 kts | 286° |
| 2026-05-04 18:04 | 50.98534 | -19.91565 | 38338 ft | 447 kts | 286° |
| 2026-05-04 18:05 | 51.00256 | -20.06093 | 38336 ft | 448 kts | 276° |
| 2026-05-04 18:05 | 51.00727 | -20.15962 | 38336 ft | 449 kts | 275° |
| 2026-05-04 18:06 | 51.01299 | -20.30813 | 38328 ft | 449 kts | 275° |
| 2026-05-04 18:06 | 51.01679 | -20.40703 | 38334 ft | 449 kts | 275° |
| 2026-05-04 18:07 | 51.02061 | -20.50589 | 38345 ft | 448 kts | 275° |
| 2026-05-04 18:07 | 51.02437 | -20.60474 | 38343 ft | 448 kts | 275° |
| 2026-05-04 18:08 | 51.02805 | -20.70350 | 38353 ft | 448 kts | 274° |
| 2026-05-04 18:08 | 51.03162 | -20.80169 | 38350 ft | 448 kts | 275° |
| 2026-05-04 18:09 | 51.03854 | -20.99942 | 38348 ft | 448 kts | 274° |
| 2026-05-04 18:10 | 51.04188 | -21.09826 | 38355 ft | 448 kts | 274° |
| 2026-05-04 18:10 | 51.04513 | -21.19698 | 38356 ft | 448 kts | 274° |
| 2026-05-04 18:11 | 51.04830 | -21.29586 | 38352 ft | 448 kts | 274° |
| 2026-05-04 18:11 | 51.05139 | -21.39469 | 38362 ft | 447 kts | 274° |
| 2026-05-04 18:12 | 51.05438 | -21.49317 | 38361 ft | 447 kts | 274° |
| 2026-05-04 18:12 | 51.05729 | -21.59190 | 38363 ft | 447 kts | 274° |
| 2026-05-04 18:13 | 51.06012 | -21.69053 | 38360 ft | 447 kts | 274° |
| 2026-05-04 18:14 | 51.06421 | -21.83850 | 38352 ft | 447 kts | 274° |
| 2026-05-04 18:14 | 51.06683 | -21.93702 | 38368 ft | 445 kts | 274° |
| 2026-05-04 18:15 | 51.07140 | -22.11706 | 38373 ft | 445 kts | 274° |
| 2026-05-04 18:16 | 51.07379 | -22.21551 | 38373 ft | 445 kts | 274° |
| 2026-05-04 18:16 | 51.07608 | -22.31389 | 38373 ft | 445 kts | 274° |
| 2026-05-04 18:17 | 51.07937 | -22.46124 | 38370 ft | 444 kts | 273° |
| 2026-05-04 18:18 | 51.08247 | -22.60858 | 38383 ft | 444 kts | 273° |
| 2026-05-04 18:18 | 51.08444 | -22.70687 | 38376 ft | 444 kts | 273° |
| 2026-05-04 18:19 | 51.08722 | -22.85413 | 38375 ft | 444 kts | 273° |
| 2026-05-04 18:19 | 51.08898 | -22.95233 | 38388 ft | 444 kts | 273° |
| 2026-05-04 18:20 | 51.09064 | -23.04978 | 38388 ft | 444 kts | 273° |
| 2026-05-04 18:20 | 51.09224 | -23.14792 | 38388 ft | 444 kts | 273° |
| 2026-05-04 18:21 | 51.09375 | -23.24605 | 38390 ft | 444 kts | 273° |
| 2026-05-04 18:21 | 51.09517 | -23.34421 | 38391 ft | 444 kts | 272° |
| 2026-05-04 18:22 | 51.09652 | -23.44244 | 38392 ft | 444 kts | 272° |
| 2026-05-04 18:22 | 51.09778 | -23.54055 | 38394 ft | 443 kts | 272° |
| 2026-05-04 18:23 | 51.09896 | -23.63851 | 38396 ft | 443 kts | 272° |
| 2026-05-04 18:23 | 51.10006 | -23.73654 | 38395 ft | 443 kts | 272° |
| 2026-05-04 18:24 | 51.10108 | -23.83468 | 38395 ft | 443 kts | 272° |
| 2026-05-04 18:24 | 51.10201 | -23.93257 | 38399 ft | 443 kts | 272° |
| 2026-05-04 18:25 | 51.10286 | -24.03048 | 38402 ft | 441 kts | 272° |
| 2026-05-04 18:25 | 51.10362 | -24.12792 | 38400 ft | 440 kts | 272° |
| 2026-05-04 18:26 | 51.10430 | -24.22530 | 38403 ft | 440 kts | 272° |
| 2026-05-04 18:26 | 51.10491 | -24.32269 | 38402 ft | 440 kts | 272° |
| 2026-05-04 18:27 | 51.10543 | -24.42011 | 38404 ft | 440 kts | 272° |
| 2026-05-04 18:27 | 51.10587 | -24.51753 | 38412 ft | 440 kts | 271° |
| 2026-05-04 18:28 | 51.10623 | -24.61488 | 38409 ft | 440 kts | 271° |
| 2026-05-04 18:28 | 51.10651 | -24.71164 | 38405 ft | 440 kts | 271° |
| 2026-05-04 18:29 | 51.10671 | -24.80901 | 38409 ft | 440 kts | 271° |
| 2026-05-04 18:29 | 51.10683 | -24.90636 | 38410 ft | 440 kts | 271° |
| 2026-05-04 18:30 | 51.10685 | -25.05231 | 38409 ft | 440 kts | 271° |
| 2026-05-04 18:31 | 51.10677 | -25.14960 | 38418 ft | 440 kts | 271° |
| 2026-05-04 18:31 | 51.10660 | -25.24698 | 38415 ft | 440 kts | 271° |
| 2026-05-04 18:32 | 51.10636 | -25.34443 | 38411 ft | 440 kts | 271° |
| 2026-05-04 18:32 | 51.10603 | -25.44176 | 38412 ft | 440 kts | 271° |
| 2026-05-04 18:33 | 51.10563 | -25.53915 | 38416 ft | 440 kts | 271° |
| 2026-05-04 18:33 | 51.10514 | -25.63654 | 38417 ft | 440 kts | 271° |
| 2026-05-04 18:34 | 51.10457 | -25.73401 | 38417 ft | 440 kts | 270° |
| 2026-05-04 18:34 | 51.10392 | -25.83152 | 38421 ft | 440 kts | 270° |
| 2026-05-04 18:35 | 51.10318 | -25.92892 | 38415 ft | 440 kts | 270° |
| 2026-05-04 18:35 | 51.10237 | -26.02641 | 38423 ft | 441 kts | 270° |
| 2026-05-04 18:36 | 51.10148 | -26.12381 | 38429 ft | 441 kts | 270° |
| 2026-05-04 18:36 | 51.10051 | -26.22066 | 38414 ft | 441 kts | 270° |
| 2026-05-04 18:37 | 51.09945 | -26.31808 | 38420 ft | 441 kts | 270° |
| 2026-05-04 18:37 | 51.09832 | -26.41551 | 38421 ft | 441 kts | 270° |
| 2026-05-04 18:38 | 51.09710 | -26.51300 | 38423 ft | 440 kts | 270° |
| 2026-05-04 18:38 | 51.09580 | -26.61031 | 38426 ft | 440 kts | 270° |
| 2026-05-04 18:39 | 51.09443 | -26.70753 | 38431 ft | 440 kts | 270° |
| 2026-05-04 18:39 | 51.09297 | -26.80503 | 38427 ft | 440 kts | 270° |
| 2026-05-04 18:40 | 51.09143 | -26.90242 | 38416 ft | 440 kts | 270° |
| 2026-05-04 18:40 | 51.08981 | -26.99960 | 38431 ft | 440 kts | 270° |
| 2026-05-04 18:41 | 51.08811 | -27.09686 | 38422 ft | 439 kts | 270° |
| 2026-05-04 18:41 | 51.08633 | -27.19390 | 38425 ft | 439 kts | 270° |
| 2026-05-04 18:42 | 51.08447 | -27.29099 | 38421 ft | 439 kts | 270° |
| 2026-05-04 18:42 | 51.08254 | -27.38800 | 38424 ft | 439 kts | 270° |
| 2026-05-04 18:43 | 51.08052 | -27.48500 | 38424 ft | 439 kts | 269° |
| 2026-05-04 18:43 | 51.07842 | -27.58201 | 38424 ft | 439 kts | 270° |
| 2026-05-04 18:44 | 51.07624 | -27.67908 | 38426 ft | 439 kts | 270° |
| 2026-05-04 18:44 | 51.07399 | -27.77595 | 38428 ft | 439 kts | 269° |
| 2026-05-04 18:45 | 51.07165 | -27.87284 | 38427 ft | 439 kts | 269° |
| 2026-05-04 18:45 | 51.06923 | -27.96989 | 38429 ft | 439 kts | 269° |
| 2026-05-04 18:46 | 51.06673 | -28.06672 | 38410 ft | 439 kts | 269° |
| 2026-05-04 18:46 | 51.06415 | -28.16373 | 38424 ft | 439 kts | 269° |
| 2026-05-04 18:47 | 51.06149 | -28.26071 | 38428 ft | 439 kts | 269° |
| 2026-05-04 18:47 | 51.05875 | -28.35774 | 38427 ft | 439 kts | 269° |
| 2026-05-04 18:48 | 51.05593 | -28.45475 | 38425 ft | 439 kts | 269° |
| 2026-05-04 18:48 | 51.05303 | -28.55165 | 38424 ft | 439 kts | 269° |
| 2026-05-04 18:49 | 51.05004 | -28.64854 | 38427 ft | 439 kts | 269° |
| 2026-05-04 18:49 | 51.04698 | -28.74553 | 38428 ft | 439 kts | 269° |
| 2026-05-04 18:50 | 51.04384 | -28.84249 | 38424 ft | 439 kts | 269° |
| 2026-05-04 18:50 | 51.04062 | -28.93934 | 38425 ft | 439 kts | 269° |
| 2026-05-04 18:51 | 51.03731 | -29.03635 | 38428 ft | 439 kts | 269° |
| 2026-05-04 18:51 | 51.03393 | -29.13327 | 38425 ft | 439 kts | 269° |
| 2026-05-04 18:52 | 51.03046 | -29.23014 | 38426 ft | 439 kts | 269° |
| 2026-05-04 18:52 | 51.02694 | -29.32646 | 38424 ft | 439 kts | 269° |
| 2026-05-04 18:53 | 51.02332 | -29.42330 | 38427 ft | 439 kts | 269° |
| 2026-05-04 18:53 | 51.01961 | -29.52020 | 38427 ft | 440 kts | 269° |
| 2026-05-04 18:54 | 51.01583 | -29.61711 | 38424 ft | 440 kts | 269° |
| 2026-05-04 18:54 | 51.01196 | -29.71396 | 38425 ft | 439 kts | 269° |
| 2026-05-04 18:55 | 51.00802 | -29.81061 | 38429 ft | 439 kts | 269° |
| 2026-05-04 18:55 | 51.00196 | -29.95566 | 38427 ft | 439 kts | 269° |
| 2026-05-04 18:56 | 51.00244 | -30.05214 | 38425 ft | 437 kts | 275° |
| 2026-05-04 18:56 | 51.00602 | -30.14831 | 38425 ft | 436 kts | 276° |
| 2026-05-04 18:57 | 51.01011 | -30.24451 | 38425 ft | 437 kts | 276° |
| 2026-05-04 18:57 | 51.01412 | -30.34065 | 38425 ft | 437 kts | 276° |
| 2026-05-04 18:58 | 51.01797 | -30.43691 | 38425 ft | 437 kts | 276° |
| 2026-05-04 18:58 | 51.02169 | -30.53318 | 38422 ft | 437 kts | 276° |
| 2026-05-04 18:59 | 51.02532 | -30.62956 | 38420 ft | 437 kts | 275° |
| 2026-05-04 18:59 | 51.02888 | -30.72594 | 38422 ft | 437 kts | 275° |
| 2026-05-04 19:00 | 51.03235 | -30.82221 | 38425 ft | 436 kts | 276° |
| 2026-05-04 19:00 | 51.03572 | -30.91772 | 38425 ft | 436 kts | 276° |
| 2026-05-04 19:01 | 51.03906 | -31.01444 | 38418 ft | 436 kts | 276° |
| 2026-05-04 19:01 | 51.04230 | -31.11068 | 38417 ft | 436 kts | 276° |
| 2026-05-04 19:02 | 51.04546 | -31.20684 | 38416 ft | 436 kts | 275° |
| 2026-05-04 19:02 | 51.04802 | -31.28687 | 38417 ft | 436 kts | 275° |
| 2026-05-04 19:03 | 51.05151 | -31.39858 | 38415 ft | 435 kts | 276° |
| 2026-05-04 19:03 | 51.05441 | -31.49443 | 38415 ft | 434 kts | 276° |
| 2026-05-04 19:04 | 51.05679 | -31.57472 | 38415 ft | 434 kts | 276° |
| 2026-05-04 19:04 | 51.05954 | -31.66996 | 38408 ft | 434 kts | 276° |
| 2026-05-04 19:05 | 51.06223 | -31.76577 | 38410 ft | 434 kts | 276° |
| 2026-05-04 19:05 | 51.06484 | -31.86156 | 38411 ft | 434 kts | 275° |
| 2026-05-04 19:06 | 51.06736 | -31.95736 | 38408 ft | 432 kts | 276° |
| 2026-05-04 19:06 | 51.06978 | -32.05257 | 38406 ft | 430 kts | 276° |
| 2026-05-04 19:07 | 51.07214 | -32.14761 | 38401 ft | 430 kts | 276° |
| 2026-05-04 19:07 | 51.07442 | -32.24265 | 38400 ft | 430 kts | 276° |
| 2026-05-04 19:08 | 51.07662 | -32.33762 | 38403 ft | 430 kts | 276° |
| 2026-05-04 19:08 | 51.07874 | -32.43273 | 38398 ft | 430 kts | 276° |
| 2026-05-04 19:09 | 51.08078 | -32.52761 | 38393 ft | 428 kts | 276° |
| 2026-05-04 19:09 | 51.08271 | -32.62192 | 38404 ft | 425 kts | 276° |
| 2026-05-04 19:10 | 51.08459 | -32.71591 | 38392 ft | 426 kts | 276° |
| 2026-05-04 19:10 | 51.08640 | -32.81006 | 38383 ft | 426 kts | 276° |
| 2026-05-04 19:11 | 51.08813 | -32.90434 | 38392 ft | 426 kts | 276° |
| 2026-05-04 19:11 | 51.08977 | -32.99847 | 38395 ft | 426 kts | 276° |
| 2026-05-04 19:12 | 51.09209 | -33.13957 | 38384 ft | 424 kts | 276° |
| 2026-05-04 19:13 | 51.09354 | -33.23325 | 38384 ft | 424 kts | 276° |
| 2026-05-04 19:13 | 51.09492 | -33.32708 | 38384 ft | 424 kts | 276° |
| 2026-05-04 19:14 | 51.09622 | -33.42071 | 38384 ft | 424 kts | 276° |
| 2026-05-04 19:14 | 51.09745 | -33.51445 | 38376 ft | 424 kts | 276° |
| 2026-05-04 19:15 | 51.09859 | -33.60767 | 38373 ft | 424 kts | 276° |
| 2026-05-04 19:15 | 51.09966 | -33.70135 | 38376 ft | 423 kts | 276° |
| 2026-05-04 19:16 | 51.10066 | -33.79489 | 38370 ft | 423 kts | 276° |
| 2026-05-04 19:16 | 51.10159 | -33.88850 | 38373 ft | 423 kts | 276° |
| 2026-05-04 19:17 | 51.10244 | -33.98204 | 38373 ft | 423 kts | 276° |
| 2026-05-04 19:17 | 51.10321 | -34.07572 | 38370 ft | 423 kts | 276° |
| 2026-05-04 19:18 | 51.10391 | -34.16931 | 38371 ft | 423 kts | 276° |
| 2026-05-04 19:18 | 51.10454 | -34.26290 | 38376 ft | 422 kts | 276° |
| 2026-05-04 19:19 | 51.10508 | -34.35610 | 38367 ft | 421 kts | 276° |
| 2026-05-04 19:19 | 51.10556 | -34.44922 | 38359 ft | 421 kts | 276° |
| 2026-05-04 19:20 | 51.10596 | -34.54236 | 38364 ft | 421 kts | 275° |
| 2026-05-04 19:20 | 51.10629 | -34.63555 | 38363 ft | 421 kts | 275° |
| 2026-05-04 19:21 | 51.10654 | -34.72872 | 38357 ft | 421 kts | 275° |
| 2026-05-04 19:21 | 51.10672 | -34.82184 | 38355 ft | 419 kts | 275° |
| 2026-05-04 19:22 | 51.10681 | -34.91413 | 38362 ft | 417 kts | 275° |
| 2026-05-04 19:22 | 51.10684 | -35.00645 | 38352 ft | 417 kts | 275° |
| 2026-05-04 19:23 | 51.10681 | -35.09864 | 38359 ft | 417 kts | 275° |
| 2026-05-04 19:23 | 51.10670 | -35.19080 | 38351 ft | 416 kts | 275° |
| 2026-05-04 19:24 | 51.10651 | -35.28277 | 38351 ft | 416 kts | 275° |
| 2026-05-04 19:24 | 51.10626 | -35.37479 | 38322 ft | 416 kts | 275° |
| 2026-05-04 19:25 | 51.10592 | -35.46657 | 38348 ft | 414 kts | 275° |
| 2026-05-04 19:25 | 51.10552 | -35.55826 | 38348 ft | 414 kts | 274° |
| 2026-05-04 19:26 | 51.10506 | -35.64917 | 38346 ft | 414 kts | 274° |
| 2026-05-04 19:26 | 51.10452 | -35.74080 | 38346 ft | 414 kts | 274° |
| 2026-05-04 19:27 | 51.10390 | -35.83248 | 38343 ft | 414 kts | 274° |
| 2026-05-04 19:27 | 51.10321 | -35.92407 | 38344 ft | 414 kts | 274° |
| 2026-05-04 19:28 | 51.10245 | -36.01566 | 38341 ft | 413 kts | 274° |
| 2026-05-04 19:28 | 51.10163 | -36.10705 | 38341 ft | 413 kts | 274° |
| 2026-05-04 19:29 | 51.10073 | -36.19856 | 38341 ft | 413 kts | 274° |
| 2026-05-04 19:29 | 51.09976 | -36.28996 | 38333 ft | 413 kts | 274° |
| 2026-05-04 19:30 | 51.09872 | -36.38141 | 38334 ft | 413 kts | 274° |
| 2026-05-04 19:30 | 51.09760 | -36.47283 | 38336 ft | 413 kts | 274° |
| 2026-05-04 19:31 | 51.09642 | -36.56417 | 38334 ft | 412 kts | 273° |
| 2026-05-04 19:31 | 51.09516 | -36.65488 | 38330 ft | 410 kts | 273° |
| 2026-05-04 19:32 | 51.09385 | -36.74546 | 38325 ft | 410 kts | 273° |
| 2026-05-04 19:32 | 51.09247 | -36.83605 | 38325 ft | 409 kts | 272° |
| 2026-05-04 19:33 | 51.09103 | -36.92584 | 38322 ft | 409 kts | 272° |
| 2026-05-04 19:33 | 51.08950 | -37.01688 | 38317 ft | 409 kts | 272° |
| 2026-05-04 19:34 | 51.08792 | -37.10660 | 38317 ft | 408 kts | 272° |
| 2026-05-04 19:34 | 51.08625 | -37.19708 | 38310 ft | 405 kts | 271° |
| 2026-05-04 19:35 | 51.08455 | -37.28601 | 38305 ft | 405 kts | 271° |
| 2026-05-04 19:35 | 51.08277 | -37.37549 | 38307 ft | 405 kts | 271° |
| 2026-05-04 19:36 | 51.08093 | -37.46487 | 38305 ft | 405 kts | 271° |
| 2026-05-04 19:36 | 51.07901 | -37.55437 | 38307 ft | 405 kts | 271° |
| 2026-05-04 19:37 | 51.07703 | -37.64377 | 38306 ft | 404 kts | 271° |
| 2026-05-04 19:37 | 51.07498 | -37.73306 | 38297 ft | 404 kts | 270° |
| 2026-05-04 19:38 | 51.07286 | -37.82220 | 38291 ft | 403 kts | 270° |
| 2026-05-04 19:38 | 51.07068 | -37.91121 | 38284 ft | 403 kts | 270° |
| 2026-05-04 19:39 | 51.06843 | -38.00044 | 38286 ft | 403 kts | 270° |
| 2026-05-04 19:39 | 51.06611 | -38.08947 | 38284 ft | 403 kts | 270° |
| 2026-05-04 19:40 | 51.06373 | -38.17862 | 38279 ft | 403 kts | 270° |
| 2026-05-04 19:40 | 51.06128 | -38.26773 | 38272 ft | 403 kts | 269° |
| 2026-05-04 19:41 | 51.05879 | -38.35571 | 38262 ft | 400 kts | 268° |
| 2026-05-04 19:41 | 51.05620 | -38.44452 | 38266 ft | 399 kts | 268° |
| 2026-05-04 19:42 | 51.05360 | -38.53203 | 38268 ft | 399 kts | 268° |
| 2026-05-04 19:42 | 51.05088 | -38.62084 | 38254 ft | 399 kts | 268° |
| 2026-05-04 19:43 | 51.04815 | -38.70824 | 38253 ft | 399 kts | 268° |
| 2026-05-04 19:43 | 51.04532 | -38.79648 | 38252 ft | 399 kts | 268° |
| 2026-05-04 19:44 | 51.04243 | -38.88463 | 38244 ft | 401 kts | 267° |
| 2026-05-04 19:44 | 51.03945 | -38.97320 | 38238 ft | 402 kts | 267° |
| 2026-05-04 19:45 | 51.03641 | -39.06188 | 38234 ft | 402 kts | 266° |
| 2026-05-04 19:45 | 51.03330 | -39.15047 | 38240 ft | 402 kts | 266° |
| 2026-05-04 19:46 | 51.03012 | -39.23904 | 38234 ft | 402 kts | 266° |
| 2026-05-04 19:46 | 51.02687 | -39.32786 | 38222 ft | 402 kts | 266° |
| 2026-05-04 19:47 | 51.02355 | -39.41664 | 38211 ft | 403 kts | 266° |
| 2026-05-04 19:47 | 51.02014 | -39.50596 | 38221 ft | 407 kts | 265° |
| 2026-05-04 19:48 | 51.01664 | -39.59584 | 38206 ft | 408 kts | 265° |
| 2026-05-04 19:48 | 51.01306 | -39.68599 | 38202 ft | 409 kts | 265° |
| 2026-05-04 19:49 | 51.00942 | -39.77605 | 38191 ft | 409 kts | 265° |
| 2026-05-04 19:49 | 51.00569 | -39.86634 | 38206 ft | 409 kts | 265° |
| 2026-05-04 19:50 | 51.00191 | -39.95638 | 38174 ft | 409 kts | 265° |
| 2026-05-04 19:50 | 50.99767 | -40.04663 | 38198 ft | 411 kts | 263° |
| 2026-05-04 19:51 | 50.99259 | -40.13657 | 38186 ft | 412 kts | 263° |
| 2026-05-04 19:51 | 50.98726 | -40.22721 | 38171 ft | 412 kts | 263° |
| 2026-05-04 19:52 | 50.98194 | -40.31775 | 38166 ft | 412 kts | 263° |
| 2026-05-04 19:52 | 50.97660 | -40.40843 | 38165 ft | 412 kts | 263° |
| 2026-05-04 19:53 | 50.97122 | -40.49897 | 38155 ft | 412 kts | 263° |
| 2026-05-04 19:53 | 50.96669 | -40.57421 | 38155 ft | 413 kts | 262° |
| 2026-05-04 19:54 | 50.96115 | -40.66501 | 38150 ft | 414 kts | 262° |
| 2026-05-04 19:54 | 50.95553 | -40.75586 | 38146 ft | 414 kts | 262° |
| 2026-05-04 19:55 | 50.94985 | -40.84671 | 38146 ft | 414 kts | 262° |
| 2026-05-04 19:55 | 50.94410 | -40.93750 | 38131 ft | 414 kts | 261° |
| 2026-05-04 19:56 | 50.93825 | -41.02855 | 38128 ft | 415 kts | 261° |
| 2026-05-04 19:56 | 50.93234 | -41.11968 | 38114 ft | 416 kts | 260° |
| 2026-05-04 19:57 | 50.92631 | -41.21122 | 38115 ft | 418 kts | 260° |
| 2026-05-04 19:57 | 50.92021 | -41.30295 | 38111 ft | 419 kts | 260° |
| 2026-05-04 19:58 | 50.91404 | -41.39466 | 38111 ft | 419 kts | 260° |
| 2026-05-04 19:58 | 50.90778 | -41.48646 | 38110 ft | 419 kts | 260° |
| 2026-05-04 19:59 | 50.90146 | -41.57814 | 38091 ft | 419 kts | 260° |
| 2026-05-04 19:59 | 50.89506 | -41.66985 | 38089 ft | 419 kts | 260° |
| 2026-05-04 20:00 | 50.88859 | -41.76163 | 38074 ft | 419 kts | 259° |
| 2026-05-04 20:00 | 50.88205 | -41.85327 | 38081 ft | 419 kts | 259° |
| 2026-05-04 20:01 | 50.87544 | -41.94485 | 38070 ft | 419 kts | 259° |
| 2026-05-04 20:01 | 50.86876 | -42.03644 | 38054 ft | 419 kts | 259° |
| 2026-05-04 20:02 | 50.86200 | -42.12798 | 38055 ft | 419 kts | 259° |
| 2026-05-04 20:02 | 50.85517 | -42.21963 | 38044 ft | 419 kts | 259° |
| 2026-05-04 20:03 | 50.84821 | -42.31169 | 38046 ft | 424 kts | 259° |
| 2026-05-04 20:03 | 50.84113 | -42.40457 | 38045 ft | 425 kts | 259° |
| 2026-05-04 20:04 | 50.83405 | -42.49668 | 38031 ft | 425 kts | 259° |
| 2026-05-04 20:04 | 50.82684 | -42.58945 | 38026 ft | 425 kts | 258° |
| 2026-05-04 20:05 | 50.81954 | -42.68230 | 38012 ft | 426 kts | 258° |
| 2026-05-04 20:05 | 50.81214 | -42.77541 | 38018 ft | 427 kts | 257° |
| 2026-05-04 20:06 | 50.80465 | -42.86860 | 37996 ft | 429 kts | 257° |
| 2026-05-04 20:06 | 50.79704 | -42.96234 | 37989 ft | 430 kts | 257° |
| 2026-05-04 20:07 | 50.78938 | -43.05598 | 37990 ft | 430 kts | 257° |
| 2026-05-04 20:07 | 50.78163 | -43.14962 | 37980 ft | 430 kts | 257° |
| 2026-05-04 20:08 | 50.77375 | -43.24387 | 37974 ft | 430 kts | 257° |
| 2026-05-04 20:08 | 50.76591 | -43.33679 | 37965 ft | 430 kts | 256° |
| 2026-05-04 20:09 | 50.75789 | -43.43072 | 37985 ft | 433 kts | 256° |
| 2026-05-04 20:09 | 50.74972 | -43.52547 | 37954 ft | 436 kts | 256° |
| 2026-05-04 20:10 | 50.74148 | -43.62030 | 37930 ft | 436 kts | 256° |
| 2026-05-04 20:10 | 50.73317 | -43.71516 | 37948 ft | 436 kts | 256° |
| 2026-05-04 20:11 | 50.72477 | -43.81008 | 37920 ft | 436 kts | 256° |
| 2026-05-04 20:11 | 50.71628 | -43.90495 | 37930 ft | 437 kts | 255° |
| 2026-05-04 20:12 | 50.70767 | -44.00019 | 37906 ft | 439 kts | 255° |
| 2026-05-04 20:12 | 50.69898 | -44.09558 | 37906 ft | 439 kts | 255° |
| 2026-05-04 20:13 | 50.69021 | -44.19097 | 37902 ft | 439 kts | 255° |
| 2026-05-04 20:13 | 50.68136 | -44.28626 | 37894 ft | 440 kts | 254° |
| 2026-05-04 20:14 | 50.67237 | -44.38206 | 37889 ft | 443 kts | 254° |
| 2026-05-04 20:14 | 50.66328 | -44.47818 | 37882 ft | 444 kts | 254° |
| 2026-05-04 20:15 | 50.65411 | -44.57443 | 37886 ft | 444 kts | 254° |
| 2026-05-04 20:15 | 50.64485 | -44.67062 | 37875 ft | 444 kts | 254° |
| 2026-05-04 20:16 | 50.63550 | -44.76691 | 37875 ft | 444 kts | 254° |
| 2026-05-04 20:16 | 50.62614 | -44.86244 | 37865 ft | 444 kts | 254° |
| 2026-05-04 20:17 | 50.61664 | -44.95859 | 37901 ft | 444 kts | 253° |
| 2026-05-04 20:17 | 50.60705 | -45.05471 | 37859 ft | 445 kts | 253° |
| 2026-05-04 20:18 | 50.59736 | -45.15098 | 37858 ft | 447 kts | 253° |
| 2026-05-04 20:18 | 50.58755 | -45.24759 | 37848 ft | 448 kts | 253° |
| 2026-05-04 20:19 | 50.57766 | -45.34435 | 37844 ft | 448 kts | 253° |
| 2026-05-04 20:19 | 50.56769 | -45.44105 | 37842 ft | 448 kts | 253° |
| 2026-05-04 20:20 | 50.55763 | -45.53774 | 37850 ft | 448 kts | 253° |
| 2026-05-04 20:20 | 50.54746 | -45.63450 | 37834 ft | 449 kts | 253° |
| 2026-05-04 20:21 | 50.53722 | -45.73133 | 37829 ft | 449 kts | 253° |
| 2026-05-04 20:21 | 50.52170 | -45.87652 | 37828 ft | 449 kts | 253° |
| 2026-05-04 20:22 | 50.51123 | -45.97339 | 37819 ft | 451 kts | 253° |
| 2026-05-04 20:22 | 50.50061 | -46.07078 | 37848 ft | 453 kts | 253° |
| 2026-05-04 20:23 | 50.48996 | -46.16790 | 37816 ft | 454 kts | 253° |
| 2026-05-04 20:23 | 50.47916 | -46.26555 | 37809 ft | 454 kts | 252° |
| 2026-05-04 20:24 | 50.46828 | -46.36317 | 37809 ft | 454 kts | 252° |
| 2026-05-04 20:24 | 50.45731 | -46.46079 | 37808 ft | 454 kts | 252° |
| 2026-05-04 20:25 | 50.44626 | -46.55832 | 37798 ft | 454 kts | 252° |
| 2026-05-04 20:25 | 50.43511 | -46.65592 | 37787 ft | 454 kts | 252° |
| 2026-05-04 20:26 | 50.42388 | -46.75344 | 37799 ft | 456 kts | 253° |
| 2026-05-04 20:26 | 50.41249 | -46.85146 | 37793 ft | 458 kts | 253° |
| 2026-05-04 20:27 | 50.40101 | -46.94971 | 37785 ft | 458 kts | 252° |
| 2026-05-04 20:27 | 50.38944 | -47.04802 | 37780 ft | 458 kts | 252° |
| 2026-05-04 20:28 | 50.37780 | -47.14613 | 37782 ft | 458 kts | 252° |
| 2026-05-04 20:28 | 50.36607 | -47.24423 | 37768 ft | 458 kts | 252° |
| 2026-05-04 20:29 | 50.35427 | -47.34217 | 37766 ft | 458 kts | 252° |
| 2026-05-04 20:29 | 50.34238 | -47.44010 | 37766 ft | 458 kts | 252° |
| 2026-05-04 20:30 | 50.33048 | -47.53746 | 37779 ft | 458 kts | 252° |
| 2026-05-04 20:30 | 50.31831 | -47.63619 | 37752 ft | 460 kts | 252° |
| 2026-05-04 20:31 | 50.30616 | -47.73400 | 37746 ft | 461 kts | 252° |
| 2026-05-04 20:31 | 50.29387 | -47.83243 | 37748 ft | 461 kts | 252° |
| 2026-05-04 20:32 | 50.28149 | -47.93083 | 37733 ft | 461 kts | 252° |
| 2026-05-04 20:32 | 50.26902 | -48.02918 | 37732 ft | 461 kts | 252° |
| 2026-05-04 20:33 | 50.25648 | -48.12737 | 37726 ft | 461 kts | 252° |
| 2026-05-04 20:33 | 50.24384 | -48.22556 | 37739 ft | 461 kts | 252° |
| 2026-05-04 20:34 | 50.23117 | -48.32344 | 37719 ft | 459 kts | 252° |
| 2026-05-04 20:34 | 50.21839 | -48.42132 | 37716 ft | 461 kts | 252° |
| 2026-05-04 20:35 | 50.20551 | -48.51932 | 37696 ft | 462 kts | 252° |
| 2026-05-04 20:35 | 50.19252 | -48.61748 | 37695 ft | 461 kts | 252° |
| 2026-05-04 20:36 | 50.17948 | -48.71546 | 37694 ft | 461 kts | 252° |
| 2026-05-04 20:36 | 50.16643 | -48.81277 | 37674 ft | 461 kts | 252° |
| 2026-05-04 20:37 | 50.15322 | -48.91059 | 37676 ft | 461 kts | 252° |
| 2026-05-04 20:37 | 50.13994 | -49.00828 | 37668 ft | 461 kts | 252° |
| 2026-05-04 20:38 | 50.12657 | -49.10596 | 37669 ft | 461 kts | 252° |
| 2026-05-04 20:38 | 50.11311 | -49.20365 | 37644 ft | 462 kts | 252° |
| 2026-05-04 20:39 | 50.09953 | -49.30147 | 37656 ft | 463 kts | 252° |
| 2026-05-04 20:39 | 50.08586 | -49.39943 | 37643 ft | 463 kts | 252° |
| 2026-05-04 20:40 | 50.07209 | -49.49747 | 37622 ft | 463 kts | 252° |
| 2026-05-04 20:40 | 50.05825 | -49.59536 | 37620 ft | 463 kts | 252° |
| 2026-05-04 20:41 | 50.04433 | -49.69312 | 37622 ft | 463 kts | 252° |
| 2026-05-04 20:41 | 50.03032 | -49.79085 | 37624 ft | 463 kts | 252° |
| 2026-05-04 20:42 | 50.01862 | -49.87205 | 37608 ft | 463 kts | 252° |
| 2026-05-04 20:42 | 50.00444 | -49.96963 | 37598 ft | 462 kts | 251° |
| 2026-05-04 20:43 | 49.98480 | -50.06386 | 37591 ft | 457 kts | 245° |
| 2026-05-04 20:43 | 49.96287 | -50.15649 | 37578 ft | 457 kts | 244° |
| 2026-05-04 20:44 | 49.94045 | -50.24873 | 37571 ft | 457 kts | 244° |
| 2026-05-04 20:44 | 49.91800 | -50.34084 | 37572 ft | 456 kts | 245° |
| 2026-05-04 20:45 | 49.89557 | -50.43291 | 37562 ft | 456 kts | 245° |
| 2026-05-04 20:45 | 49.87313 | -50.52484 | 37561 ft | 456 kts | 244° |
| 2026-05-04 20:46 | 49.85063 | -50.61663 | 37556 ft | 456 kts | 244° |
| 2026-05-04 20:46 | 49.82804 | -50.70838 | 37572 ft | 456 kts | 244° |
| 2026-05-04 20:47 | 49.80557 | -50.79929 | 37547 ft | 454 kts | 245° |
| 2026-05-04 20:47 | 49.78294 | -50.89049 | 37556 ft | 454 kts | 244° |
| 2026-05-04 20:48 | 49.76020 | -50.98169 | 37526 ft | 455 kts | 244° |
| 2026-05-04 20:48 | 49.73736 | -51.07290 | 37520 ft | 455 kts | 244° |
| 2026-05-04 20:49 | 49.71447 | -51.16402 | 37535 ft | 455 kts | 244° |
| 2026-05-04 20:49 | 49.69150 | -51.25505 | 37509 ft | 454 kts | 244° |
| 2026-05-04 20:50 | 49.66851 | -51.34582 | 37492 ft | 454 kts | 244° |
| 2026-05-04 20:50 | 49.64548 | -51.43638 | 37486 ft | 453 kts | 244° |
| 2026-05-04 20:51 | 49.62238 | -51.52679 | 37487 ft | 453 kts | 244° |
| 2026-05-04 20:51 | 49.59918 | -51.61727 | 37482 ft | 453 kts | 244° |
| 2026-05-04 20:52 | 49.57597 | -51.70745 | 37464 ft | 452 kts | 244° |
| 2026-05-04 20:52 | 49.55275 | -51.79732 | 37458 ft | 452 kts | 244° |
| 2026-05-04 20:53 | 49.52943 | -51.88718 | 37495 ft | 452 kts | 244° |
| 2026-05-04 20:53 | 49.50605 | -51.97695 | 37452 ft | 452 kts | 244° |
| 2026-05-04 20:54 | 49.48328 | -52.06661 | 37455 ft | 453 kts | 245° |
| 2026-05-04 20:54 | 49.46094 | -52.15727 | 37426 ft | 454 kts | 245° |
| 2026-05-04 20:55 | 49.43858 | -52.24790 | 37427 ft | 454 kts | 245° |
| 2026-05-04 20:55 | 49.41606 | -52.33841 | 37424 ft | 453 kts | 245° |
| 2026-05-04 20:56 | 49.39344 | -52.42873 | 37426 ft | 453 kts | 245° |
| 2026-05-04 20:56 | 49.37074 | -52.51895 | 37400 ft | 453 kts | 245° |
| 2026-05-04 20:57 | 49.34799 | -52.60902 | 37403 ft | 452 kts | 245° |
| 2026-05-04 20:57 | 49.32523 | -52.69878 | 37496 ft | 451 kts | 245° |
| 2026-05-04 20:58 | 49.31385 | -52.74351 | 37652 ft | 451 kts | 245° |
| 2026-05-04 20:58 | 49.30244 | -52.78831 | 37749 ft | 452 kts | 245° |
| 2026-05-04 20:58 | 49.29099 | -52.83312 | 37903 ft | 452 kts | 245° |
| 2026-05-04 20:58 | 49.27949 | -52.87805 | 37956 ft | 454 kts | 245° |
| 2026-05-04 20:59 | 49.26796 | -52.92302 | 38068 ft | 454 kts | 245° |
| 2026-05-04 20:59 | 49.25646 | -52.96780 | 38195 ft | 453 kts | 245° |
| 2026-05-04 20:59 | 49.23333 | -53.05760 | 38395 ft | 453 kts | 245° |
| 2026-05-04 21:00 | 49.21028 | -53.14673 | 38582 ft | 453 kts | 245° |
| 2026-05-04 21:00 | 49.18703 | -53.23628 | 38720 ft | 454 kts | 245° |
| 2026-05-04 21:01 | 49.17540 | -53.28097 | 38854 ft | 453 kts | 245° |
| 2026-05-04 21:01 | 49.16370 | -53.32579 | 38902 ft | 454 kts | 245° |
| 2026-05-04 21:01 | 49.15201 | -53.37050 | 39026 ft | 453 kts | 245° |
| 2026-05-04 21:01 | 49.14036 | -53.41500 | 39166 ft | 452 kts | 245° |
| 2026-05-04 21:02 | 49.11693 | -53.50419 | 39296 ft | 453 kts | 245° |
| 2026-05-04 21:02 | 49.09333 | -53.59366 | 39309 ft | 456 kts | 245° |
| 2026-05-04 21:03 | 49.06960 | -53.68331 | 39304 ft | 456 kts | 245° |
| 2026-05-04 21:03 | 49.04579 | -53.77291 | 39316 ft | 456 kts | 245° |
| 2026-05-04 21:04 | 49.02194 | -53.86230 | 39306 ft | 455 kts | 245° |
| 2026-05-04 21:04 | 48.99808 | -53.95140 | 39289 ft | 454 kts | 245° |
| 2026-05-04 21:05 | 48.97417 | -54.04033 | 39295 ft | 454 kts | 245° |
| 2026-05-04 21:05 | 48.95016 | -54.12931 | 39295 ft | 454 kts | 245° |
| 2026-05-04 21:06 | 48.92612 | -54.21805 | 39312 ft | 454 kts | 245° |
| 2026-05-04 21:06 | 48.90202 | -54.30668 | 39304 ft | 454 kts | 245° |
| 2026-05-04 21:07 | 48.87787 | -54.39516 | 39292 ft | 453 kts | 245° |
| 2026-05-04 21:07 | 48.85364 | -54.48358 | 39289 ft | 453 kts | 244° |
| 2026-05-04 21:08 | 48.82939 | -54.57174 | 39293 ft | 453 kts | 245° |
| 2026-05-04 21:08 | 48.80502 | -54.66002 | 39288 ft | 454 kts | 245° |
| 2026-05-04 21:09 | 48.78056 | -54.74831 | 39294 ft | 455 kts | 244° |
| 2026-05-04 21:09 | 48.75615 | -54.83609 | 39299 ft | 455 kts | 244° |
| 2026-05-04 21:10 | 48.73152 | -54.92433 | 39297 ft | 455 kts | 244° |
| 2026-05-04 21:10 | 48.70681 | -55.01252 | 39297 ft | 455 kts | 244° |
| 2026-05-04 21:11 | 48.68206 | -55.10054 | 39299 ft | 454 kts | 244° |
| 2026-05-04 21:11 | 48.65722 | -55.18851 | 39299 ft | 454 kts | 244° |
| 2026-05-04 21:12 | 48.63235 | -55.27631 | 39302 ft | 454 kts | 244° |
| 2026-05-04 21:12 | 48.60742 | -55.36400 | 39301 ft | 454 kts | 244° |
| 2026-05-04 21:13 | 48.58240 | -55.45165 | 39303 ft | 454 kts | 244° |
| 2026-05-04 21:13 | 48.55733 | -55.53920 | 39310 ft | 455 kts | 244° |
| 2026-05-04 21:14 | 48.53206 | -55.62705 | 39303 ft | 457 kts | 244° |
| 2026-05-04 21:14 | 48.50671 | -55.71492 | 39297 ft | 457 kts | 244° |
| 2026-05-04 21:15 | 48.48127 | -55.80281 | 39300 ft | 457 kts | 244° |
| 2026-05-04 21:15 | 48.45577 | -55.89056 | 39300 ft | 457 kts | 244° |
| 2026-05-04 21:16 | 48.43022 | -55.97815 | 39300 ft | 457 kts | 244° |
| 2026-05-04 21:16 | 48.40456 | -56.06581 | 39295 ft | 457 kts | 244° |
| 2026-05-04 21:17 | 48.37908 | -56.15254 | 39296 ft | 457 kts | 244° |
| 2026-05-04 21:17 | 48.35336 | -56.23977 | 39297 ft | 457 kts | 244° |
| 2026-05-04 21:18 | 48.32754 | -56.32703 | 39301 ft | 456 kts | 244° |
| 2026-05-04 21:18 | 48.30168 | -56.41414 | 39297 ft | 456 kts | 244° |
| 2026-05-04 21:19 | 48.27575 | -56.50114 | 39293 ft | 456 kts | 244° |
| 2026-05-04 21:19 | 48.24976 | -56.58804 | 39307 ft | 456 kts | 244° |
| 2026-05-04 21:20 | 48.22372 | -56.67481 | 39305 ft | 456 kts | 244° |
| 2026-05-04 21:20 | 48.19760 | -56.76154 | 39342 ft | 455 kts | 244° |
| 2026-05-04 21:21 | 48.17151 | -56.84789 | 39343 ft | 455 kts | 244° |
| 2026-05-04 21:21 | 48.14539 | -56.93401 | 39375 ft | 454 kts | 244° |
| 2026-05-04 21:22 | 48.11936 | -57.01954 | 39406 ft | 454 kts | 244° |
| 2026-05-04 21:22 | 48.09306 | -57.10563 | 39420 ft | 454 kts | 244° |
| 2026-05-04 21:23 | 48.06679 | -57.19136 | 39444 ft | 452 kts | 244° |
| 2026-05-04 21:23 | 48.04054 | -57.27674 | 39445 ft | 453 kts | 244° |
| 2026-05-04 21:24 | 48.01415 | -57.36224 | 39459 ft | 454 kts | 244° |
| 2026-05-04 21:24 | 47.98766 | -57.44779 | 39452 ft | 454 kts | 244° |
| 2026-05-04 21:25 | 47.96109 | -57.53333 | 39469 ft | 453 kts | 243° |
| 2026-05-04 21:25 | 47.93465 | -57.61815 | 39469 ft | 451 kts | 243° |
| 2026-05-04 21:26 | 47.90816 | -57.70283 | 39479 ft | 450 kts | 243° |
| 2026-05-04 21:26 | 47.88166 | -57.78727 | 39477 ft | 450 kts | 243° |
| 2026-05-04 21:27 | 47.85512 | -57.87153 | 39491 ft | 450 kts | 243° |
| 2026-05-04 21:27 | 47.82850 | -57.95579 | 39491 ft | 449 kts | 244° |
| 2026-05-04 21:28 | 47.80188 | -58.03977 | 39516 ft | 448 kts | 243° |
| 2026-05-04 21:28 | 47.77520 | -58.12365 | 39519 ft | 449 kts | 243° |
| 2026-05-04 21:29 | 47.74840 | -58.20761 | 39519 ft | 450 kts | 243° |
| 2026-05-04 21:29 | 47.72150 | -58.29164 | 39533 ft | 450 kts | 243° |
| 2026-05-04 21:30 | 47.69467 | -58.37517 | 39528 ft | 447 kts | 243° |
| 2026-05-04 21:30 | 47.66809 | -58.45764 | 39540 ft | 446 kts | 243° |
| 2026-05-04 21:31 | 47.62783 | -58.58203 | 39542 ft | 446 kts | 243° |
| 2026-05-04 21:32 | 47.60095 | -58.66477 | 39549 ft | 446 kts | 243° |
| 2026-05-04 21:32 | 47.57402 | -58.74737 | 39548 ft | 445 kts | 243° |
| 2026-05-04 21:33 | 47.54706 | -58.82980 | 39557 ft | 445 kts | 243° |
| 2026-05-04 21:33 | 47.52001 | -58.91226 | 39566 ft | 445 kts | 243° |
| 2026-05-04 21:34 | 47.49735 | -58.98112 | 39568 ft | 445 kts | 243° |
| 2026-05-04 21:34 | 47.47023 | -59.06331 | 39564 ft | 445 kts | 243° |
| 2026-05-04 21:35 | 47.44300 | -59.14553 | 39577 ft | 446 kts | 243° |
| 2026-05-04 21:35 | 47.41568 | -59.22781 | 39581 ft | 446 kts | 243° |
| 2026-05-04 21:36 | 47.38846 | -59.30949 | 39581 ft | 446 kts | 243° |
| 2026-05-04 21:36 | 47.36082 | -59.39217 | 39586 ft | 447 kts | 243° |
| 2026-05-04 21:37 | 47.33349 | -59.47368 | 39586 ft | 447 kts | 243° |
| 2026-05-04 21:37 | 47.30587 | -59.55580 | 39595 ft | 447 kts | 243° |
| 2026-05-04 21:38 | 47.27816 | -59.63790 | 39600 ft | 448 kts | 243° |
| 2026-05-04 21:38 | 47.25034 | -59.72011 | 39598 ft | 449 kts | 243° |
| 2026-05-04 21:39 | 47.22239 | -59.80238 | 39599 ft | 450 kts | 243° |
| 2026-05-04 21:39 | 47.19434 | -59.88473 | 39608 ft | 450 kts | 243° |
| 2026-05-04 21:40 | 47.16625 | -59.96694 | 39609 ft | 450 kts | 243° |
| 2026-05-04 21:40 | 47.13807 | -60.04914 | 39603 ft | 450 kts | 243° |
| 2026-05-04 21:41 | 47.10984 | -60.13123 | 39611 ft | 450 kts | 243° |
| 2026-05-04 21:41 | 47.08157 | -60.21317 | 39611 ft | 450 kts | 243° |
| 2026-05-04 21:42 | 47.05324 | -60.29502 | 39618 ft | 450 kts | 243° |
| 2026-05-04 21:42 | 47.02482 | -60.37691 | 39620 ft | 450 kts | 242° |
| 2026-05-04 21:43 | 46.99639 | -60.45855 | 39635 ft | 450 kts | 243° |
| 2026-05-04 21:43 | 46.96787 | -60.54019 | 39623 ft | 450 kts | 243° |
| 2026-05-04 21:44 | 46.93937 | -60.62154 | 39628 ft | 447 kts | 243° |
| 2026-05-04 21:44 | 46.91113 | -60.70188 | 39629 ft | 442 kts | 243° |
| 2026-05-04 21:45 | 46.88301 | -60.78166 | 39627 ft | 442 kts | 243° |
| 2026-05-04 21:45 | 46.85482 | -60.86138 | 39629 ft | 442 kts | 243° |
| 2026-05-04 21:46 | 46.82656 | -60.94105 | 39632 ft | 442 kts | 243° |
| 2026-05-04 21:46 | 46.79830 | -61.02048 | 39636 ft | 441 kts | 243° |
| 2026-05-04 21:47 | 46.77004 | -61.09970 | 39635 ft | 440 kts | 242° |
| 2026-05-04 21:47 | 46.74171 | -61.17885 | 39638 ft | 440 kts | 242° |
| 2026-05-04 21:48 | 46.71330 | -61.25801 | 39642 ft | 442 kts | 242° |
| 2026-05-04 21:48 | 46.68463 | -61.33764 | 39638 ft | 446 kts | 242° |
| 2026-05-04 21:49 | 46.65574 | -61.41766 | 39636 ft | 447 kts | 242° |
| 2026-05-04 21:49 | 46.62696 | -61.49714 | 39640 ft | 447 kts | 242° |
| 2026-05-04 21:50 | 46.59790 | -61.57713 | 39639 ft | 447 kts | 242° |
| 2026-05-04 21:50 | 46.56859 | -61.65758 | 39639 ft | 447 kts | 242° |
| 2026-05-04 21:51 | 46.53966 | -61.73674 | 39643 ft | 446 kts | 242° |
| 2026-05-04 21:51 | 46.51050 | -61.81631 | 39645 ft | 446 kts | 242° |
| 2026-05-04 21:52 | 46.48115 | -61.89616 | 39654 ft | 446 kts | 242° |
| 2026-05-04 21:52 | 46.45208 | -61.97500 | 39671 ft | 446 kts | 242° |
| 2026-05-04 21:53 | 46.42276 | -62.05430 | 39658 ft | 447 kts | 242° |
| 2026-05-04 21:53 | 46.39337 | -62.13356 | 39654 ft | 446 kts | 242° |
| 2026-05-04 21:54 | 46.36398 | -62.21258 | 39665 ft | 446 kts | 242° |
| 2026-05-04 21:54 | 46.33452 | -62.29155 | 39666 ft | 446 kts | 242° |
| 2026-05-04 21:55 | 46.30499 | -62.37047 | 39676 ft | 446 kts | 242° |
| 2026-05-04 21:55 | 46.27548 | -62.44914 | 39667 ft | 445 kts | 242° |
| 2026-05-04 21:56 | 46.24594 | -62.52762 | 39667 ft | 444 kts | 242° |
| 2026-05-04 21:56 | 46.21642 | -62.60585 | 39667 ft | 444 kts | 242° |
| 2026-05-04 21:57 | 46.18683 | -62.68403 | 39669 ft | 444 kts | 242° |
| 2026-05-04 21:57 | 46.15716 | -62.76218 | 39696 ft | 444 kts | 242° |
| 2026-05-04 21:58 | 46.12741 | -62.84035 | 39679 ft | 445 kts | 242° |
| 2026-05-04 21:58 | 46.09765 | -62.91832 | 39680 ft | 445 kts | 242° |
| 2026-05-04 21:59 | 46.06776 | -62.99638 | 39681 ft | 445 kts | 242° |
| 2026-05-04 21:59 | 46.03785 | -63.07428 | 39677 ft | 445 kts | 242° |
| 2026-05-04 22:00 | 46.00792 | -63.15201 | 39683 ft | 443 kts | 242° |
| 2026-05-04 22:00 | 45.97801 | -63.22948 | 39691 ft | 442 kts | 242° |
| 2026-05-04 22:01 | 45.94809 | -63.30673 | 39693 ft | 442 kts | 242° |
| 2026-05-04 22:01 | 45.91811 | -63.38395 | 39691 ft | 443 kts | 242° |
| 2026-05-04 22:02 | 45.88806 | -63.46110 | 39701 ft | 443 kts | 242° |
| 2026-05-04 22:02 | 45.85798 | -63.53812 | 39697 ft | 442 kts | 242° |
| 2026-05-04 22:03 | 45.82786 | -63.61506 | 39699 ft | 442 kts | 242° |
| 2026-05-04 22:03 | 45.79768 | -63.69191 | 39697 ft | 442 kts | 241° |
| 2026-05-04 22:04 | 45.76747 | -63.76863 | 39701 ft | 442 kts | 241° |
| 2026-05-04 22:04 | 45.73720 | -63.84528 | 39706 ft | 442 kts | 241° |
| 2026-05-04 22:05 | 45.70686 | -63.92189 | 39701 ft | 442 kts | 241° |
| 2026-05-04 22:05 | 45.67648 | -63.99841 | 39705 ft | 442 kts | 241° |
| 2026-05-04 22:06 | 45.64601 | -64.07491 | 39704 ft | 442 kts | 241° |
| 2026-05-04 22:06 | 45.61555 | -64.15121 | 39712 ft | 442 kts | 241° |
| 2026-05-04 22:07 | 45.58501 | -64.22749 | 39711 ft | 443 kts | 241° |
| 2026-05-04 22:07 | 45.55436 | -64.30384 | 39719 ft | 444 kts | 241° |
| 2026-05-04 22:08 | 45.52364 | -64.38014 | 39730 ft | 444 kts | 241° |
| 2026-05-04 22:08 | 45.49285 | -64.45639 | 39724 ft | 444 kts | 241° |
| 2026-05-04 22:09 | 45.46211 | -64.53234 | 39744 ft | 442 kts | 241° |
| 2026-05-04 22:09 | 45.43134 | -64.60813 | 39743 ft | 442 kts | 241° |
| 2026-05-04 22:10 | 45.40057 | -64.68375 | 39749 ft | 442 kts | 241° |
| 2026-05-04 22:10 | 45.36993 | -64.75883 | 39749 ft | 442 kts | 241° |
| 2026-05-04 22:11 | 45.33884 | -64.83479 | 39754 ft | 441 kts | 241° |
| 2026-05-04 22:11 | 45.30817 | -64.90954 | 39756 ft | 441 kts | 241° |
| 2026-05-04 22:12 | 45.27723 | -64.98475 | 39760 ft | 441 kts | 241° |
| 2026-05-04 22:12 | 45.24629 | -65.05975 | 39766 ft | 441 kts | 241° |
| 2026-05-04 22:13 | 45.21520 | -65.13490 | 39764 ft | 441 kts | 241° |
| 2026-05-04 22:13 | 45.18412 | -65.20984 | 39769 ft | 440 kts | 241° |
| 2026-05-04 22:14 | 45.15301 | -65.28466 | 39768 ft | 440 kts | 241° |
| 2026-05-04 22:14 | 45.12167 | -65.35981 | 39777 ft | 440 kts | 241° |
| 2026-05-04 22:15 | 45.09048 | -65.43442 | 39777 ft | 440 kts | 241° |
| 2026-05-04 22:15 | 45.05948 | -65.50838 | 39782 ft | 439 kts | 241° |
| 2026-05-04 22:16 | 45.02809 | -65.58307 | 39791 ft | 439 kts | 241° |
| 2026-05-04 22:16 | 44.99706 | -65.65670 | 39787 ft | 439 kts | 241° |
| 2026-05-04 22:17 | 44.96576 | -65.73078 | 39796 ft | 439 kts | 241° |
| 2026-05-04 22:17 | 44.93443 | -65.80475 | 39794 ft | 438 kts | 241° |
| 2026-05-04 22:18 | 44.90820 | -65.86651 | 39796 ft | 437 kts | 241° |
| 2026-05-04 22:18 | 44.87693 | -65.93999 | 39798 ft | 437 kts | 241° |
| 2026-05-04 22:19 | 44.84560 | -66.01343 | 39797 ft | 437 kts | 240° |
| 2026-05-04 22:19 | 44.81443 | -66.08628 | 39779 ft | 437 kts | 240° |
| 2026-05-04 22:20 | 44.78282 | -66.15998 | 39793 ft | 436 kts | 240° |
| 2026-05-04 22:20 | 44.75165 | -66.23249 | 39789 ft | 436 kts | 240° |
| 2026-05-04 22:21 | 44.72027 | -66.30529 | 39793 ft | 436 kts | 240° |
| 2026-05-04 22:21 | 44.68879 | -66.37813 | 39794 ft | 436 kts | 240° |
| 2026-05-04 22:22 | 44.65729 | -66.45083 | 39793 ft | 435 kts | 240° |
| 2026-05-04 22:22 | 44.62579 | -66.52334 | 39802 ft | 435 kts | 240° |
| 2026-05-04 22:23 | 44.59424 | -66.59579 | 39805 ft | 435 kts | 240° |
| 2026-05-04 22:23 | 44.56267 | -66.66811 | 39805 ft | 435 kts | 240° |
| 2026-05-04 22:24 | 44.53102 | -66.74043 | 39799 ft | 435 kts | 240° |
| 2026-05-04 22:24 | 44.49940 | -66.81248 | 39806 ft | 434 kts | 240° |
| 2026-05-04 22:25 | 44.46776 | -66.88441 | 39827 ft | 434 kts | 240° |
| 2026-05-04 22:25 | 44.43604 | -66.95635 | 39805 ft | 434 kts | 240° |
| 2026-05-04 22:26 | 44.40947 | -67.03177 | 39811 ft | 432 kts | 250° |
| 2026-05-04 22:26 | 44.38902 | -67.11067 | 39811 ft | 432 kts | 251° |
| 2026-05-04 22:27 | 44.36898 | -67.18989 | 39813 ft | 432 kts | 251° |
| 2026-05-04 22:27 | 44.34896 | -67.26905 | 39813 ft | 432 kts | 251° |
| 2026-05-04 22:28 | 44.32887 | -67.34820 | 39814 ft | 432 kts | 251° |
| 2026-05-04 22:28 | 44.30888 | -67.42673 | 39824 ft | 432 kts | 251° |
| 2026-05-04 22:29 | 44.28866 | -67.50585 | 39821 ft | 433 kts | 251° |
| 2026-05-04 22:29 | 44.26836 | -67.58506 | 39815 ft | 433 kts | 251° |
| 2026-05-04 22:30 | 44.24801 | -67.66418 | 39820 ft | 433 kts | 251° |
| 2026-05-04 22:30 | 44.22760 | -67.74328 | 39817 ft | 433 kts | 251° |
| 2026-05-04 22:31 | 44.20713 | -67.82234 | 39823 ft | 433 kts | 251° |
| 2026-05-04 22:31 | 44.18661 | -67.90131 | 39820 ft | 433 kts | 251° |
| 2026-05-04 22:32 | 44.16604 | -67.98022 | 39819 ft | 433 kts | 251° |
| 2026-05-04 22:32 | 44.14545 | -68.05894 | 39818 ft | 433 kts | 251° |
| 2026-05-04 22:33 | 44.12475 | -68.13782 | 39815 ft | 433 kts | 251° |
| 2026-05-04 22:33 | 44.10402 | -68.21656 | 39821 ft | 433 kts | 251° |
| 2026-05-04 22:34 | 44.08325 | -68.29519 | 39821 ft | 433 kts | 251° |
| 2026-05-04 22:34 | 44.06239 | -68.37388 | 39812 ft | 433 kts | 251° |
| 2026-05-04 22:35 | 44.04154 | -68.45233 | 39826 ft | 433 kts | 251° |
| 2026-05-04 22:35 | 44.02057 | -68.53093 | 39819 ft | 434 kts | 251° |
| 2026-05-04 22:36 | 43.99953 | -68.60957 | 39820 ft | 434 kts | 251° |
| 2026-05-04 22:36 | 43.97845 | -68.68808 | 39814 ft | 434 kts | 251° |
| 2026-05-04 22:37 | 43.95729 | -68.76662 | 39785 ft | 434 kts | 251° |
| 2026-05-04 22:37 | 43.94669 | -68.80589 | 39567 ft | 432 kts | 251° |
| 2026-05-04 22:37 | 43.93619 | -68.84471 | 39355 ft | 430 kts | 251° |
| 2026-05-04 22:37 | 43.92570 | -68.88341 | 39131 ft | 428 kts | 251° |
| 2026-05-04 22:38 | 43.91534 | -68.92163 | 38906 ft | 428 kts | 251° |
| 2026-05-04 22:38 | 43.90471 | -68.96074 | 38688 ft | 428 kts | 251° |
| 2026-05-04 22:38 | 43.89421 | -68.99934 | 38471 ft | 428 kts | 251° |
| 2026-05-04 22:38 | 43.88371 | -69.03783 | 38195 ft | 428 kts | 251° |
| 2026-05-04 22:39 | 43.87318 | -69.07641 | 37917 ft | 428 kts | 251° |
| 2026-05-04 22:39 | 43.86264 | -69.11496 | 37653 ft | 428 kts | 251° |
| 2026-05-04 22:39 | 43.85222 | -69.15299 | 37393 ft | 428 kts | 251° |
| 2026-05-04 22:39 | 43.84164 | -69.19158 | 37103 ft | 429 kts | 251° |
| 2026-05-04 22:40 | 43.83102 | -69.23023 | 36843 ft | 429 kts | 252° |
| 2026-05-04 22:40 | 43.82039 | -69.26887 | 36586 ft | 430 kts | 252° |
| 2026-05-04 22:40 | 43.80974 | -69.30752 | 36335 ft | 430 kts | 252° |
| 2026-05-04 22:40 | 43.79912 | -69.34595 | 36009 ft | 425 kts | 252° |
| 2026-05-04 22:41 | 43.78859 | -69.38403 | 35536 ft | 423 kts | 252° |
| 2026-05-04 22:41 | 43.77808 | -69.42195 | 35000 ft | 422 kts | 252° |
| 2026-05-04 22:41 | 43.76756 | -69.45991 | 34478 ft | 422 kts | 253° |
| 2026-05-04 22:41 | 43.75704 | -69.49780 | 33809 ft | 424 kts | 254° |
| 2026-05-04 22:42 | 43.74591 | -69.53599 | 32679 ft | 436 kts | 250° |
| 2026-05-04 22:42 | 43.72993 | -69.57261 | 31446 ft | 457 kts | 238° |
| 2026-05-04 22:42 | 43.70640 | -69.60372 | 30454 ft | 479 kts | 221° |
| 2026-05-04 22:42 | 43.67672 | -69.62552 | 29942 ft | 487 kts | 207° |
| 2026-05-04 22:43 | 43.64484 | -69.64103 | 29345 ft | 485 kts | 204° |
| 2026-05-04 22:43 | 43.61286 | -69.65518 | 28788 ft | 479 kts | 204° |
| 2026-05-04 22:43 | 43.58130 | -69.66905 | 28260 ft | 473 kts | 204° |
| 2026-05-04 22:43 | 43.55016 | -69.68285 | 27728 ft | 467 kts | 204° |
| 2026-05-04 22:44 | 43.51942 | -69.69655 | 27187 ft | 462 kts | 204° |
| 2026-05-04 22:44 | 43.48906 | -69.71013 | 26673 ft | 456 kts | 204° |
| 2026-05-04 22:44 | 43.45911 | -69.72355 | 26147 ft | 451 kts | 204° |
| 2026-05-04 22:44 | 43.42936 | -69.73688 | 25621 ft | 446 kts | 204° |
| 2026-05-04 22:45 | 43.39996 | -69.75006 | 25095 ft | 442 kts | 204° |
| 2026-05-04 22:45 | 43.34202 | -69.77600 | 24053 ft | 434 kts | 204° |
| 2026-05-04 22:45 | 43.31347 | -69.78877 | 23557 ft | 430 kts | 204° |
| 2026-05-04 22:46 | 43.28518 | -69.80141 | 22984 ft | 426 kts | 204° |
| 2026-05-04 22:46 | 43.25721 | -69.81389 | 22478 ft | 420 kts | 204° |
| 2026-05-04 22:46 | 43.22963 | -69.82617 | 21981 ft | 414 kts | 204° |
| 2026-05-04 22:46 | 43.20236 | -69.83831 | 21477 ft | 409 kts | 204° |
| 2026-05-04 22:47 | 43.17541 | -69.85031 | 20964 ft | 404 kts | 203° |
| 2026-05-04 22:47 | 43.14889 | -69.86209 | 20536 ft | 398 kts | 203° |
| 2026-05-04 22:47 | 43.12276 | -69.87370 | 20070 ft | 393 kts | 204° |
| 2026-05-04 22:47 | 43.09688 | -69.88519 | 19604 ft | 389 kts | 204° |
| 2026-05-04 22:48 | 43.07133 | -69.89652 | 19157 ft | 384 kts | 204° |
| 2026-05-04 22:48 | 43.04614 | -69.90767 | 18825 ft | 377 kts | 204° |
| 2026-05-04 22:48 | 43.02133 | -69.91866 | 18342 ft | 374 kts | 204° |
| 2026-05-04 22:48 | 42.99656 | -69.92964 | 17789 ft | 373 kts | 204° |
| 2026-05-04 22:49 | 42.97199 | -69.94052 | 17274 ft | 370 kts | 204° |
| 2026-05-04 22:49 | 42.94762 | -69.95129 | 16777 ft | 366 kts | 203° |
| 2026-05-04 22:49 | 42.92349 | -69.96194 | 16297 ft | 363 kts | 203° |
| 2026-05-04 22:49 | 42.89955 | -69.97251 | 15814 ft | 360 kts | 203° |
| 2026-05-04 22:50 | 42.87585 | -69.98295 | 15330 ft | 357 kts | 203° |
| 2026-05-04 22:50 | 42.85230 | -69.99333 | 14845 ft | 354 kts | 203° |
| 2026-05-04 22:50 | 42.82900 | -70.00359 | 14359 ft | 352 kts | 203° |
| 2026-05-04 22:50 | 42.80581 | -70.01379 | 13890 ft | 349 kts | 203° |
| 2026-05-04 22:51 | 42.78278 | -70.02392 | 13387 ft | 346 kts | 203° |
| 2026-05-04 22:51 | 42.75998 | -70.03412 | 12899 ft | 342 kts | 204° |
| 2026-05-04 22:51 | 42.73771 | -70.04488 | 12428 ft | 338 kts | 205° |
| 2026-05-04 22:51 | 42.71570 | -70.05575 | 11970 ft | 335 kts | 205° |
| 2026-05-04 22:52 | 42.69391 | -70.06654 | 11491 ft | 332 kts | 205° |
| 2026-05-04 22:52 | 42.67255 | -70.07797 | 11055 ft | 325 kts | 212° |
| 2026-05-04 22:52 | 42.65444 | -70.09443 | 10930 ft | 302 kts | 228° |
| 2026-05-04 22:52 | 42.64188 | -70.11529 | 10850 ft | 280 kts | 244° |
| 2026-05-04 22:53 | 42.63300 | -70.13830 | 10735 ft | 265 kts | 249° |
| 2026-05-04 22:53 | 42.62535 | -70.16063 | 10633 ft | 256 kts | 250° |
| 2026-05-04 22:53 | 42.61806 | -70.18221 | 10514 ft | 248 kts | 250° |
| 2026-05-04 22:53 | 42.61090 | -70.20326 | 10310 ft | 245 kts | 249° |
| 2026-05-04 22:54 | 42.60175 | -70.22310 | 10028 ft | 252 kts | 234° |
| 2026-05-04 22:54 | 42.58788 | -70.23826 | 9750 ft | 262 kts | 215° |
| 2026-05-04 22:54 | 42.57118 | -70.24862 | 9456 ft | 265 kts | 208° |
| 2026-05-04 22:54 | 42.55400 | -70.25774 | 9171 ft | 264 kts | 207° |
| 2026-05-04 22:55 | 42.53689 | -70.26669 | 8891 ft | 262 kts | 207° |
| 2026-05-04 22:55 | 42.52018 | -70.27551 | 8609 ft | 260 kts | 208° |
| 2026-05-04 22:55 | 42.50326 | -70.28467 | 8336 ft | 257 kts | 210° |
| 2026-05-04 22:55 | 42.48857 | -70.29687 | 8041 ft | 247 kts | 228° |
| 2026-05-04 22:56 | 42.47837 | -70.31480 | 7760 ft | 237 kts | 249° |
| 2026-05-04 22:56 | 42.47311 | -70.33571 | 7489 ft | 233 kts | 258° |
| 2026-05-04 22:56 | 42.46948 | -70.35670 | 7344 ft | 224 kts | 260° |
| 2026-05-04 22:56 | 42.46619 | -70.37686 | 7268 ft | 213 kts | 260° |
| 2026-05-04 22:57 | 42.46303 | -70.39603 | 7164 ft | 204 kts | 260° |
| 2026-05-04 22:57 | 42.45994 | -70.41448 | 7078 ft | 198 kts | 260° |
| 2026-05-04 22:57 | 42.45690 | -70.43257 | 7001 ft | 198 kts | 259° |
| 2026-05-04 22:57 | 42.45381 | -70.45079 | 6822 ft | 198 kts | 259° |
| 2026-05-04 22:58 | 42.45073 | -70.46885 | 6643 ft | 197 kts | 259° |
| 2026-05-04 22:58 | 42.44764 | -70.48687 | 6445 ft | 196 kts | 259° |
| 2026-05-04 22:58 | 42.44457 | -70.50477 | 6251 ft | 195 kts | 259° |
| 2026-05-04 22:58 | 42.44149 | -70.52265 | 6067 ft | 196 kts | 258° |
| 2026-05-04 22:59 | 42.43834 | -70.54093 | 5872 ft | 202 kts | 258° |
| 2026-05-04 22:59 | 42.43514 | -70.55948 | 5594 ft | 202 kts | 257° |
| 2026-05-04 22:59 | 42.43195 | -70.57791 | 5362 ft | 201 kts | 257° |
| 2026-05-04 22:59 | 42.42876 | -70.59630 | 5128 ft | 201 kts | 257° |
| 2026-05-04 23:00 | 42.42558 | -70.61463 | 4880 ft | 200 kts | 257° |
| 2026-05-04 23:00 | 42.42240 | -70.63295 | 4632 ft | 199 kts | 256° |
| 2026-05-04 23:00 | 42.41924 | -70.65122 | 4412 ft | 199 kts | 257° |
| 2026-05-04 23:00 | 42.41637 | -70.66951 | 4177 ft | 198 kts | 257° |
| 2026-05-04 23:01 | 42.41332 | -70.68771 | 3966 ft | 198 kts | 256° |
| 2026-05-04 23:01 | 42.41016 | -70.70582 | 3747 ft | 197 kts | 255° |
| 2026-05-04 23:01 | 42.40699 | -70.72371 | 3525 ft | 196 kts | 255° |
| 2026-05-04 23:01 | 42.40377 | -70.74165 | 3270 ft | 197 kts | 255° |
| 2026-05-04 23:02 | 42.40056 | -70.75965 | 3058 ft | 196 kts | 255° |
| 2026-05-04 23:02 | 42.39737 | -70.77759 | 2832 ft | 195 kts | 255° |
| 2026-05-04 23:02 | 42.39423 | -70.79538 | 2569 ft | 194 kts | 254° |
| 2026-05-04 23:02 | 42.39117 | -70.81278 | 2490 ft | 183 kts | 253° |
| 2026-05-04 23:03 | 42.38831 | -70.82902 | 2378 ft | 174 kts | 253° |
| 2026-05-04 23:03 | 42.38551 | -70.84475 | 2129 ft | 170 kts | 253° |
| 2026-05-04 23:03 | 42.38370 | -70.85501 | 1978 ft | 168 kts | 252° |
| 2026-05-04 23:03 | 42.38106 | -70.87000 | 1759 ft | 158 kts | 251° |
| 2026-05-04 23:04 | 42.37862 | -70.88385 | 1553 ft | 145 kts | 252° |
| 2026-05-04 23:04 | 42.37568 | -70.90036 | 1322 ft | 127 kts | 253° |
| 2026-05-04 23:04 | 42.37373 | -70.91141 | 1141 ft | 116 kts | 251° |
| 2026-05-04 23:04 | 42.37185 | -70.92199 | 1009 ft | 117 kts | 251° |
| 2026-05-04 23:05 | 42.37058 | -70.92921 | 912 ft | 116 kts | 250° |
| 2026-05-04 23:05 | 42.36872 | -70.93976 | 764 ft | 115 kts | 248° |
| 2026-05-04 23:05 | 42.36684 | -70.95036 | 627 ft | 118 kts | 246° |
| 2026-05-04 23:05 | 42.36493 | -70.96114 | 461 ft | 118 kts | 248° |
| 2026-05-04 23:06 | 42.36300 | -70.97204 | 307 ft | 121 kts | 250° |
| 2026-05-04 23:06 | 42.36106 | -70.98311 | 149 ft | 121 kts | 251° |
| 2026-05-04 23:06 | 42.35910 | -70.99406 | 30 ft | 111 kts | 251° |
| 2026-05-04 23:06 | 42.35774 | -71.00160 | 29 ft | 54 kts | 257° |
| 2026-05-04 23:07 | 42.35756 | -71.00393 | 29 ft | 17 kts | 276° |
| 2026-05-04 23:07 | 42.35772 | -71.00560 | 29 ft | 18 kts | 278° |
| 2026-05-04 23:07 | 42.35790 | -71.00731 | 28 ft | 18 kts | 277° |
| 2026-05-04 23:07 | 42.35810 | -71.00901 | 29 ft | 18 kts | 278° |
| 2026-05-04 23:08 | 42.35828 | -71.01066 | 29 ft | 18 kts | 278° |
| 2026-05-04 23:08 | 42.35838 | -71.01165 | 29 ft | 6 kts | 282° |
| 2026-05-04 23:08 | 42.35867 | -71.01198 | 29 ft | 6 kts | 344° |
| 2026-05-04 23:08 | 42.35914 | -71.01185 | 29 ft | 8 kts | 18° |
| 2026-05-04 23:09 | 42.35974 | -71.01156 | 29 ft | 11 kts | 19° |
| 2026-05-04 23:09 | 42.36055 | -71.01117 | 29 ft | 13 kts | 20° |
| 2026-05-04 23:09 | 42.36147 | -71.01072 | 29 ft | 15 kts | 19° |
| 2026-05-04 23:09 | 42.36253 | -71.01021 | 29 ft | 17 kts | 19° |
| 2026-05-04 23:10 | 42.36363 | -71.00968 | 29 ft | 14 kts | 19° |
| 2026-05-04 23:10 | 42.36432 | -71.00935 | 29 ft | 7 kts | 19° |
| 2026-05-04 23:10 | 42.36464 | -71.00930 | 29 ft | 4 kts | 348° |
| 2026-05-04 23:10 | 42.36479 | -71.00947 | 29 ft | 0 kts | 308° |
| 2026-05-04 23:11 | 42.36481 | -71.00951 | 29 ft | 1 kts | 308° |
| 2026-05-04 23:12 | 42.36481 | -71.00952 | 29 ft | 0 kts | 307° |
| 2026-05-04 23:12 | 42.36483 | -71.00955 | 29 ft | 0 kts | 306° |
| 2026-05-04 23:13 | 42.36495 | -71.00982 | 29 ft | 7 kts | 298° |
| 2026-05-04 23:13 | 42.36517 | -71.01053 | 29 ft | 9 kts | 292° |
| 2026-05-04 23:14 | 42.36544 | -71.01142 | 29 ft | 11 kts | 292° |
| 2026-05-04 23:14 | 42.36583 | -71.01198 | 29 ft | 7 kts | 343° |
| 2026-05-04 23:14 | 42.36627 | -71.01191 | 29 ft | 6 kts | 16° |
| 2026-05-04 23:14 | 42.36675 | -71.01169 | 29 ft | 8 kts | 19° |
| 2026-05-04 23:15 | 42.36728 | -71.01146 | 29 ft | 7 kts | 12° |
| 2026-05-04 23:15 | 42.36770 | -71.01148 | 29 ft | 3 kts | 346° |
| 2026-05-04 23:15 | 42.36786 | -71.01158 | 29 ft | 0 kts | 333° |
| 2026-05-04 23:17 | 42.36789 | -71.01160 | 29 ft | 1 kts | 333° |
| 2026-05-04 23:17 | 42.36809 | -71.01178 | 29 ft | 6 kts | 324° |
| 2026-05-04 23:18 | 42.36846 | -71.01223 | 29 ft | 8 kts | 316° |
| 2026-05-04 23:18 | 42.36892 | -71.01283 | 29 ft | 10 kts | 315° |
| 2026-05-04 23:18 | 42.36948 | -71.01358 | 29 ft | 12 kts | 315° |
| 2026-05-04 23:18 | 42.37019 | -71.01454 | 29 ft | 16 kts | 315° |
| 2026-05-04 23:19 | 42.37093 | -71.01554 | 29 ft | 15 kts | 315° |
| 2026-05-04 23:19 | 42.37171 | -71.01657 | 29 ft | 16 kts | 315° |
| 2026-05-04 23:19 | 42.37237 | -71.01746 | 28 ft | 13 kts | 315° |
| 2026-05-04 23:19 | 42.37288 | -71.01815 | 29 ft | 8 kts | 311° |
| 2026-05-04 23:20 | 42.37286 | -71.01882 | 29 ft | 7 kts | 237° |
| 2026-05-04 23:20 | 42.37248 | -71.01930 | 29 ft | 8 kts | 229° |
| 2026-05-04 23:20 | 42.37233 | -71.02003 | 29 ft | 9 kts | 271° |
| 2026-05-04 23:20 | 42.37236 | -71.02093 | 29 ft | 10 kts | 262° |
| 2026-05-04 23:21 | 42.37202 | -71.02179 | 29 ft | 9 kts | 226° |
| 2026-05-04 23:21 | 42.37156 | -71.02235 | 29 ft | 8 kts | 229° |
| 2026-05-04 23:21 | 42.37129 | -71.02298 | 29 ft | 8 kts | 235° |
| 2026-05-04 23:21 | 42.37088 | -71.02338 | 29 ft | 5 kts | 208° |
| 2026-05-04 23:22 | 42.37069 | -71.02352 | 29 ft | 2 kts | 207° |
| 2026-05-04 23:22 | 42.37058 | -71.02360 | 29 ft | 2 kts | 207° |
| 2026-05-04 23:22 | 42.37056 | -71.02361 | 29 ft | 0 kts | 207° |